<?xml version="1.0" encoding="UTF-8" standalone="no" ?>
<gpx xmlns="http://www.topografix.com/GPX/1/1" xmlns:xsi="http://www.w3.org/2001/XMLSchema-instance" xsi:schemaLocation="http://www.topografix.com/GPX/1/1 http://www.topografix.com/GPX/1/1/gpx.xsd" version="1.1" creator="VisuGPX - https://www.visugpx.com">
  <metadata>
    <name>Les Rousses Le Grand Cretet G2</name>
  </metadata>
  <trk>
    <name><![CDATA[G2-Grand Crétet-CODAP-15953821]]></name>
    <extensions>
      <line xmlns="http://www.topografix.com/GPX/gpx_style/0/2">
        <color>0000FF</color>
        <width>4</width>
      </line>
    </extensions>
    <trkseg>
      <trkpt lat="46.49167" lon="6.05873">
        <ele>1109</ele>
        <time>2023-01-05T10:12:40Z</time>
      </trkpt>
      <trkpt lat="46.49156" lon="6.05877">
        <ele>1108</ele>
        <time>2023-01-05T10:12:49Z</time>
      </trkpt>
      <trkpt lat="46.49164" lon="6.05895">
        <ele>1106</ele>
        <time>2023-01-05T10:13:01Z</time>
      </trkpt>
      <trkpt lat="46.49169" lon="6.05891">
        <ele>1107</ele>
        <time>2023-01-05T10:13:05Z</time>
      </trkpt>
      <trkpt lat="46.4918" lon="6.05888">
        <ele>1110</ele>
        <time>2023-01-05T10:13:14Z</time>
      </trkpt>
      <trkpt lat="46.49197" lon="6.05877">
        <ele>1116</ele>
        <time>2023-01-05T10:13:29Z</time>
      </trkpt>
      <trkpt lat="46.49206" lon="6.05876">
        <ele>1118</ele>
        <time>2023-01-05T10:13:37Z</time>
      </trkpt>
      <trkpt lat="46.49219" lon="6.0589">
        <ele>1120</ele>
        <time>2023-01-05T10:13:50Z</time>
      </trkpt>
      <trkpt lat="46.49236" lon="6.05924">
        <ele>1120</ele>
        <time>2023-01-05T10:14:13Z</time>
      </trkpt>
      <trkpt lat="46.49244" lon="6.05931">
        <ele>1121</ele>
        <time>2023-01-05T10:14:20Z</time>
      </trkpt>
      <trkpt lat="46.49252" lon="6.05929">
        <ele>1124</ele>
        <time>2023-01-05T10:14:27Z</time>
      </trkpt>
      <trkpt lat="46.49259" lon="6.05921">
        <ele>1127</ele>
        <time>2023-01-05T10:14:34Z</time>
      </trkpt>
      <trkpt lat="46.4926" lon="6.05898">
        <ele>1130</ele>
        <time>2023-01-05T10:14:46Z</time>
      </trkpt>
      <trkpt lat="46.49265" lon="6.05877">
        <ele>1134</ele>
        <time>2023-01-05T10:14:59Z</time>
      </trkpt>
      <trkpt lat="46.49268" lon="6.05866">
        <ele>1136</ele>
        <time>2023-01-05T10:15:05Z</time>
      </trkpt>
      <trkpt lat="46.49285" lon="6.05836">
        <ele>1144</ele>
        <time>2023-01-05T10:15:27Z</time>
      </trkpt>
      <trkpt lat="46.49291" lon="6.05816">
        <ele>1147</ele>
        <time>2023-01-05T10:15:39Z</time>
      </trkpt>
      <trkpt lat="46.49304" lon="6.058">
        <ele>1152</ele>
        <time>2023-01-05T10:15:52Z</time>
      </trkpt>
      <trkpt lat="46.4932" lon="6.05787">
        <ele>1157</ele>
        <time>2023-01-05T10:16:07Z</time>
      </trkpt>
      <trkpt lat="46.4933" lon="6.05792">
        <ele>1159</ele>
        <time>2023-01-05T10:16:15Z</time>
      </trkpt>
      <trkpt lat="46.49346" lon="6.05815">
        <ele>1162</ele>
        <time>2023-01-05T10:16:34Z</time>
      </trkpt>
      <trkpt lat="46.49354" lon="6.05831">
        <ele>1164</ele>
        <time>2023-01-05T10:16:44Z</time>
      </trkpt>
      <trkpt lat="46.49369" lon="6.05841">
        <ele>1167</ele>
        <time>2023-01-05T10:16:58Z</time>
      </trkpt>
      <trkpt lat="46.4938" lon="6.05851">
        <ele>1170</ele>
        <time>2023-01-05T10:17:08Z</time>
      </trkpt>
      <trkpt lat="46.49393" lon="6.05857">
        <ele>1173</ele>
        <time>2023-01-05T10:17:19Z</time>
      </trkpt>
      <trkpt lat="46.49423" lon="6.05816">
        <ele>1182</ele>
        <time>2023-01-05T10:17:52Z</time>
      </trkpt>
      <trkpt lat="46.49431" lon="6.05816">
        <ele>1183</ele>
        <time>2023-01-05T10:17:58Z</time>
      </trkpt>
      <trkpt lat="46.49449" lon="6.05803">
        <ele>1187</ele>
        <time>2023-01-05T10:18:14Z</time>
      </trkpt>
      <trkpt lat="46.49454" lon="6.05789">
        <ele>1188</ele>
        <time>2023-01-05T10:18:23Z</time>
      </trkpt>
      <trkpt lat="46.4946" lon="6.05785">
        <ele>1189</ele>
        <time>2023-01-05T10:18:28Z</time>
      </trkpt>
      <trkpt lat="46.49469" lon="6.05787">
        <ele>1191</ele>
        <time>2023-01-05T10:18:36Z</time>
      </trkpt>
      <trkpt lat="46.495" lon="6.05763">
        <ele>1197</ele>
        <time>2023-01-05T10:19:04Z</time>
      </trkpt>
      <trkpt lat="46.49503" lon="6.05746">
        <ele>1197</ele>
        <time>2023-01-05T10:19:13Z</time>
      </trkpt>
      <trkpt lat="46.49518" lon="6.05747">
        <ele>1199</ele>
        <time>2023-01-05T10:19:26Z</time>
      </trkpt>
      <trkpt lat="46.49533" lon="6.05753">
        <ele>1201</ele>
        <time>2023-01-05T10:19:38Z</time>
      </trkpt>
      <trkpt lat="46.49545" lon="6.05766">
        <ele>1202</ele>
        <time>2023-01-05T10:19:50Z</time>
      </trkpt>
      <trkpt lat="46.49564" lon="6.0578">
        <ele>1204</ele>
        <time>2023-01-05T10:20:07Z</time>
      </trkpt>
      <trkpt lat="46.49578" lon="6.05777">
        <ele>1206</ele>
        <time>2023-01-05T10:20:18Z</time>
      </trkpt>
      <trkpt lat="46.49589" lon="6.05768">
        <ele>1207</ele>
        <time>2023-01-05T10:20:28Z</time>
      </trkpt>
      <trkpt lat="46.49606" lon="6.0577">
        <ele>1207</ele>
        <time>2023-01-05T10:20:42Z</time>
      </trkpt>
      <trkpt lat="46.49612" lon="6.05758">
        <ele>1208</ele>
        <time>2023-01-05T10:20:50Z</time>
      </trkpt>
      <trkpt lat="46.49643" lon="6.0575">
        <ele>1209</ele>
        <time>2023-01-05T10:21:15Z</time>
      </trkpt>
      <trkpt lat="46.49658" lon="6.05735">
        <ele>1209</ele>
        <time>2023-01-05T10:21:30Z</time>
      </trkpt>
      <trkpt lat="46.49661" lon="6.05727">
        <ele>1209</ele>
        <time>2023-01-05T10:21:35Z</time>
      </trkpt>
      <trkpt lat="46.4969" lon="6.05713">
        <ele>1211</ele>
        <time>2023-01-05T10:22:00Z</time>
      </trkpt>
      <trkpt lat="46.49708" lon="6.05739">
        <ele>1214</ele>
        <time>2023-01-05T10:22:20Z</time>
      </trkpt>
      <trkpt lat="46.4976" lon="6.05791">
        <ele>1220</ele>
        <time>2023-01-05T10:23:10Z</time>
      </trkpt>
      <trkpt lat="46.49808" lon="6.05827">
        <ele>1225</ele>
        <time>2023-01-05T10:23:54Z</time>
      </trkpt>
      <trkpt lat="46.49831" lon="6.0583">
        <ele>1228</ele>
        <time>2023-01-05T10:24:12Z</time>
      </trkpt>
      <trkpt lat="46.49851" lon="6.05825">
        <ele>1228</ele>
        <time>2023-01-05T10:24:28Z</time>
      </trkpt>
      <trkpt lat="46.49888" lon="6.05806">
        <ele>1228</ele>
        <time>2023-01-05T10:25:00Z</time>
      </trkpt>
      <trkpt lat="46.4991" lon="6.05818">
        <ele>1230</ele>
        <time>2023-01-05T10:25:19Z</time>
      </trkpt>
      <trkpt lat="46.49919" lon="6.05826">
        <ele>1231</ele>
        <time>2023-01-05T10:25:27Z</time>
      </trkpt>
      <trkpt lat="46.4993" lon="6.05831">
        <ele>1231</ele>
        <time>2023-01-05T10:25:36Z</time>
      </trkpt>
      <trkpt lat="46.49979" lon="6.0583">
        <ele>1230</ele>
        <time>2023-01-05T10:26:16Z</time>
      </trkpt>
      <trkpt lat="46.49949" lon="6.05786">
        <ele>1229</ele>
        <time>2023-01-05T10:26:50Z</time>
      </trkpt>
      <trkpt lat="46.49917" lon="6.05761">
        <ele>1225</ele>
        <time>2023-01-05T10:27:19Z</time>
      </trkpt>
      <trkpt lat="46.49885" lon="6.05742">
        <ele>1223</ele>
        <time>2023-01-05T10:27:46Z</time>
      </trkpt>
      <trkpt lat="46.49908" lon="6.0567">
        <ele>1229</ele>
        <time>2023-01-05T10:28:30Z</time>
      </trkpt>
      <trkpt lat="46.49907" lon="6.05649">
        <ele>1231</ele>
        <time>2023-01-05T10:28:42Z</time>
      </trkpt>
      <trkpt lat="46.49898" lon="6.05624">
        <ele>1232</ele>
        <time>2023-01-05T10:28:57Z</time>
      </trkpt>
      <trkpt lat="46.49898" lon="6.05611">
        <ele>1233</ele>
        <time>2023-01-05T10:29:05Z</time>
      </trkpt>
      <trkpt lat="46.49902" lon="6.05599">
        <ele>1236</ele>
        <time>2023-01-05T10:29:12Z</time>
      </trkpt>
      <trkpt lat="46.49921" lon="6.0558">
        <ele>1243</ele>
        <time>2023-01-05T10:29:30Z</time>
      </trkpt>
      <trkpt lat="46.49928" lon="6.05559">
        <ele>1245</ele>
        <time>2023-01-05T10:29:43Z</time>
      </trkpt>
      <trkpt lat="46.49933" lon="6.05542">
        <ele>1246</ele>
        <time>2023-01-05T10:29:53Z</time>
      </trkpt>
      <trkpt lat="46.4993" lon="6.05518">
        <ele>1247</ele>
        <time>2023-01-05T10:30:07Z</time>
      </trkpt>
      <trkpt lat="46.49928" lon="6.05507">
        <ele>1248</ele>
        <time>2023-01-05T10:30:13Z</time>
      </trkpt>
      <trkpt lat="46.49918" lon="6.05492">
        <ele>1249</ele>
        <time>2023-01-05T10:30:25Z</time>
      </trkpt>
      <trkpt lat="46.49901" lon="6.05475">
        <ele>1246</ele>
        <time>2023-01-05T10:30:41Z</time>
      </trkpt>
      <trkpt lat="46.49883" lon="6.05449">
        <ele>1244</ele>
        <time>2023-01-05T10:31:01Z</time>
      </trkpt>
      <trkpt lat="46.49872" lon="6.05436">
        <ele>1242</ele>
        <time>2023-01-05T10:31:13Z</time>
      </trkpt>
      <trkpt lat="46.49854" lon="6.05406">
        <ele>1241</ele>
        <time>2023-01-05T10:31:35Z</time>
      </trkpt>
      <trkpt lat="46.49844" lon="6.05376">
        <ele>1240</ele>
        <time>2023-01-05T10:31:53Z</time>
      </trkpt>
      <trkpt lat="46.49848" lon="6.05342">
        <ele>1242</ele>
        <time>2023-01-05T10:32:12Z</time>
      </trkpt>
      <trkpt lat="46.49858" lon="6.0531">
        <ele>1245</ele>
        <time>2023-01-05T10:32:32Z</time>
      </trkpt>
      <trkpt lat="46.49865" lon="6.05291">
        <ele>1246</ele>
        <time>2023-01-05T10:32:43Z</time>
      </trkpt>
      <trkpt lat="46.49865" lon="6.05271">
        <ele>1247</ele>
        <time>2023-01-05T10:32:54Z</time>
      </trkpt>
      <trkpt lat="46.49856" lon="6.05246">
        <ele>1246</ele>
        <time>2023-01-05T10:33:10Z</time>
      </trkpt>
      <trkpt lat="46.49842" lon="6.05218">
        <ele>1246</ele>
        <time>2023-01-05T10:33:29Z</time>
      </trkpt>
      <trkpt lat="46.49834" lon="6.05197">
        <ele>1246</ele>
        <time>2023-01-05T10:33:42Z</time>
      </trkpt>
      <trkpt lat="46.49815" lon="6.05182">
        <ele>1240</ele>
        <time>2023-01-05T10:34:00Z</time>
      </trkpt>
      <trkpt lat="46.49791" lon="6.05178">
        <ele>1231</ele>
        <time>2023-01-05T10:34:19Z</time>
      </trkpt>
      <trkpt lat="46.49768" lon="6.05174">
        <ele>1222</ele>
        <time>2023-01-05T10:34:37Z</time>
      </trkpt>
      <trkpt lat="46.49744" lon="6.05168">
        <ele>1211</ele>
        <time>2023-01-05T10:34:57Z</time>
      </trkpt>
      <trkpt lat="46.49767" lon="6.05174">
        <ele>1222</ele>
        <time>2023-01-05T10:35:16Z</time>
      </trkpt>
      <trkpt lat="46.49791" lon="6.05178">
        <ele>1231</ele>
        <time>2023-01-05T10:35:35Z</time>
      </trkpt>
      <trkpt lat="46.49815" lon="6.05182">
        <ele>1240</ele>
        <time>2023-01-05T10:35:54Z</time>
      </trkpt>
      <trkpt lat="46.49834" lon="6.05197">
        <ele>1246</ele>
        <time>2023-01-05T10:36:12Z</time>
      </trkpt>
      <trkpt lat="46.49842" lon="6.05218">
        <ele>1246</ele>
        <time>2023-01-05T10:36:25Z</time>
      </trkpt>
      <trkpt lat="46.49856" lon="6.05246">
        <ele>1246</ele>
        <time>2023-01-05T10:36:44Z</time>
      </trkpt>
      <trkpt lat="46.49865" lon="6.05271">
        <ele>1247</ele>
        <time>2023-01-05T10:37:00Z</time>
      </trkpt>
      <trkpt lat="46.49865" lon="6.05291">
        <ele>1246</ele>
        <time>2023-01-05T10:37:11Z</time>
      </trkpt>
      <trkpt lat="46.49858" lon="6.0531">
        <ele>1245</ele>
        <time>2023-01-05T10:37:22Z</time>
      </trkpt>
      <trkpt lat="46.49848" lon="6.05342">
        <ele>1242</ele>
        <time>2023-01-05T10:37:42Z</time>
      </trkpt>
      <trkpt lat="46.49844" lon="6.05376">
        <ele>1240</ele>
        <time>2023-01-05T10:38:01Z</time>
      </trkpt>
      <trkpt lat="46.49853" lon="6.05407">
        <ele>1240</ele>
        <time>2023-01-05T10:38:19Z</time>
      </trkpt>
      <trkpt lat="46.49872" lon="6.05436">
        <ele>1242</ele>
        <time>2023-01-05T10:38:41Z</time>
      </trkpt>
      <trkpt lat="46.49883" lon="6.0545">
        <ele>1244</ele>
        <time>2023-01-05T10:38:53Z</time>
      </trkpt>
      <trkpt lat="46.49901" lon="6.05476">
        <ele>1246</ele>
        <time>2023-01-05T10:39:13Z</time>
      </trkpt>
      <trkpt lat="46.49918" lon="6.05493">
        <ele>1248</ele>
        <time>2023-01-05T10:39:30Z</time>
      </trkpt>
      <trkpt lat="46.49928" lon="6.05507">
        <ele>1248</ele>
        <time>2023-01-05T10:39:41Z</time>
      </trkpt>
      <trkpt lat="46.4993" lon="6.05518">
        <ele>1247</ele>
        <time>2023-01-05T10:39:47Z</time>
      </trkpt>
      <trkpt lat="46.49933" lon="6.05542">
        <ele>1246</ele>
        <time>2023-01-05T10:40:01Z</time>
      </trkpt>
      <trkpt lat="46.49927" lon="6.05559">
        <ele>1245</ele>
        <time>2023-01-05T10:40:11Z</time>
      </trkpt>
      <trkpt lat="46.49921" lon="6.05582">
        <ele>1243</ele>
        <time>2023-01-05T10:40:25Z</time>
      </trkpt>
      <trkpt lat="46.49927" lon="6.05592">
        <ele>1242</ele>
        <time>2023-01-05T10:40:32Z</time>
      </trkpt>
      <trkpt lat="46.49949" lon="6.05595">
        <ele>1244</ele>
        <time>2023-01-05T10:40:50Z</time>
      </trkpt>
      <trkpt lat="46.49958" lon="6.056">
        <ele>1245</ele>
        <time>2023-01-05T10:40:58Z</time>
      </trkpt>
      <trkpt lat="46.49983" lon="6.05619">
        <ele>1246</ele>
        <time>2023-01-05T10:41:20Z</time>
      </trkpt>
      <trkpt lat="46.50007" lon="6.0564">
        <ele>1247</ele>
        <time>2023-01-05T10:41:43Z</time>
      </trkpt>
      <trkpt lat="46.50021" lon="6.05661">
        <ele>1247</ele>
        <time>2023-01-05T10:41:59Z</time>
      </trkpt>
      <trkpt lat="46.5004" lon="6.05693">
        <ele>1245</ele>
        <time>2023-01-05T10:42:22Z</time>
      </trkpt>
      <trkpt lat="46.50049" lon="6.05716">
        <ele>1244</ele>
        <time>2023-01-05T10:42:37Z</time>
      </trkpt>
      <trkpt lat="46.50053" lon="6.05735">
        <ele>1243</ele>
        <time>2023-01-05T10:42:48Z</time>
      </trkpt>
      <trkpt lat="46.50057" lon="6.05751">
        <ele>1243</ele>
        <time>2023-01-05T10:42:57Z</time>
      </trkpt>
      <trkpt lat="46.50063" lon="6.05778">
        <ele>1242</ele>
        <time>2023-01-05T10:43:13Z</time>
      </trkpt>
      <trkpt lat="46.50072" lon="6.0579">
        <ele>1242</ele>
        <time>2023-01-05T10:43:22Z</time>
      </trkpt>
      <trkpt lat="46.50088" lon="6.05797">
        <ele>1244</ele>
        <time>2023-01-05T10:43:36Z</time>
      </trkpt>
      <trkpt lat="46.50104" lon="6.05795">
        <ele>1246</ele>
        <time>2023-01-05T10:43:49Z</time>
      </trkpt>
      <trkpt lat="46.50122" lon="6.05801">
        <ele>1247</ele>
        <time>2023-01-05T10:44:03Z</time>
      </trkpt>
      <trkpt lat="46.50141" lon="6.05814">
        <ele>1249</ele>
        <time>2023-01-05T10:44:20Z</time>
      </trkpt>
      <trkpt lat="46.50148" lon="6.05827">
        <ele>1249</ele>
        <time>2023-01-05T10:44:29Z</time>
      </trkpt>
      <trkpt lat="46.50172" lon="6.0587">
        <ele>1250</ele>
        <time>2023-01-05T10:45:00Z</time>
      </trkpt>
      <trkpt lat="46.50185" lon="6.05875">
        <ele>1251</ele>
        <time>2023-01-05T10:45:11Z</time>
      </trkpt>
      <trkpt lat="46.50202" lon="6.05905">
        <ele>1252</ele>
        <time>2023-01-05T10:45:32Z</time>
      </trkpt>
      <trkpt lat="46.50205" lon="6.05935">
        <ele>1251</ele>
        <time>2023-01-05T10:45:49Z</time>
      </trkpt>
      <trkpt lat="46.50235" lon="6.05958">
        <ele>1254</ele>
        <time>2023-01-05T10:46:16Z</time>
      </trkpt>
      <trkpt lat="46.50259" lon="6.05963">
        <ele>1257</ele>
        <time>2023-01-05T10:46:35Z</time>
      </trkpt>
      <trkpt lat="46.5027" lon="6.05975">
        <ele>1258</ele>
        <time>2023-01-05T10:46:46Z</time>
      </trkpt>
      <trkpt lat="46.50262" lon="6.05951">
        <ele>1257</ele>
        <time>2023-01-05T10:47:01Z</time>
      </trkpt>
      <trkpt lat="46.50256" lon="6.05879">
        <ele>1259</ele>
        <time>2023-01-05T10:47:41Z</time>
      </trkpt>
      <trkpt lat="46.50263" lon="6.0585">
        <ele>1261</ele>
        <time>2023-01-05T10:47:58Z</time>
      </trkpt>
      <trkpt lat="46.50244" lon="6.05774">
        <ele>1262</ele>
        <time>2023-01-05T10:48:42Z</time>
      </trkpt>
      <trkpt lat="46.50218" lon="6.05729">
        <ele>1262</ele>
        <time>2023-01-05T10:49:15Z</time>
      </trkpt>
      <trkpt lat="46.50211" lon="6.05709">
        <ele>1262</ele>
        <time>2023-01-05T10:49:27Z</time>
      </trkpt>
      <trkpt lat="46.50211" lon="6.05687">
        <ele>1262</ele>
        <time>2023-01-05T10:49:39Z</time>
      </trkpt>
      <trkpt lat="46.50231" lon="6.0565">
        <ele>1266</ele>
        <time>2023-01-05T10:50:05Z</time>
      </trkpt>
      <trkpt lat="46.50289" lon="6.05584">
        <ele>1275</ele>
        <time>2023-01-05T10:51:04Z</time>
      </trkpt>
      <trkpt lat="46.50254" lon="6.05589">
        <ele>1270</ele>
        <time>2023-01-05T10:51:32Z</time>
      </trkpt>
      <trkpt lat="46.50232" lon="6.05614">
        <ele>1267</ele>
        <time>2023-01-05T10:51:55Z</time>
      </trkpt>
      <trkpt lat="46.50219" lon="6.05629">
        <ele>1265</ele>
        <time>2023-01-05T10:52:08Z</time>
      </trkpt>
      <trkpt lat="46.50187" lon="6.05643">
        <ele>1261</ele>
        <time>2023-01-05T10:52:35Z</time>
      </trkpt>
      <trkpt lat="46.50175" lon="6.05631">
        <ele>1260</ele>
        <time>2023-01-05T10:52:46Z</time>
      </trkpt>
      <trkpt lat="46.50165" lon="6.0561">
        <ele>1260</ele>
        <time>2023-01-05T10:53:01Z</time>
      </trkpt>
      <trkpt lat="46.50145" lon="6.05563">
        <ele>1259</ele>
        <time>2023-01-05T10:53:31Z</time>
      </trkpt>
      <trkpt lat="46.5014" lon="6.05539">
        <ele>1259</ele>
        <time>2023-01-05T10:53:45Z</time>
      </trkpt>
      <trkpt lat="46.50141" lon="6.05514">
        <ele>1259</ele>
        <time>2023-01-05T10:53:59Z</time>
      </trkpt>
      <trkpt lat="46.50148" lon="6.05485">
        <ele>1261</ele>
        <time>2023-01-05T10:54:16Z</time>
      </trkpt>
      <trkpt lat="46.50163" lon="6.05456">
        <ele>1263</ele>
        <time>2023-01-05T10:54:36Z</time>
      </trkpt>
      <trkpt lat="46.50186" lon="6.0543">
        <ele>1266</ele>
        <time>2023-01-05T10:54:59Z</time>
      </trkpt>
      <trkpt lat="46.50197" lon="6.05405">
        <ele>1268</ele>
        <time>2023-01-05T10:55:15Z</time>
      </trkpt>
      <trkpt lat="46.50199" lon="6.05391">
        <ele>1269</ele>
        <time>2023-01-05T10:55:23Z</time>
      </trkpt>
      <trkpt lat="46.50217" lon="6.05383">
        <ele>1271</ele>
        <time>2023-01-05T10:55:38Z</time>
      </trkpt>
      <trkpt lat="46.50225" lon="6.05372">
        <ele>1272</ele>
        <time>2023-01-05T10:55:47Z</time>
      </trkpt>
      <trkpt lat="46.50238" lon="6.05338">
        <ele>1274</ele>
        <time>2023-01-05T10:56:08Z</time>
      </trkpt>
      <trkpt lat="46.50244" lon="6.05309">
        <ele>1273</ele>
        <time>2023-01-05T10:56:25Z</time>
      </trkpt>
      <trkpt lat="46.50256" lon="6.05283">
        <ele>1273</ele>
        <time>2023-01-05T10:56:42Z</time>
      </trkpt>
      <trkpt lat="46.50282" lon="6.05267">
        <ele>1274</ele>
        <time>2023-01-05T10:57:05Z</time>
      </trkpt>
      <trkpt lat="46.503" lon="6.05249">
        <ele>1275</ele>
        <time>2023-01-05T10:57:23Z</time>
      </trkpt>
      <trkpt lat="46.50306" lon="6.05251">
        <ele>1275</ele>
        <time>2023-01-05T10:57:27Z</time>
      </trkpt>
      <trkpt lat="46.50314" lon="6.05248">
        <ele>1275</ele>
        <time>2023-01-05T10:57:34Z</time>
      </trkpt>
      <trkpt lat="46.50359" lon="6.05249">
        <ele>1277</ele>
        <time>2023-01-05T10:58:10Z</time>
      </trkpt>
      <trkpt lat="46.50403" lon="6.05247">
        <ele>1276</ele>
        <time>2023-01-05T10:58:45Z</time>
      </trkpt>
      <trkpt lat="46.5043" lon="6.05239">
        <ele>1274</ele>
        <time>2023-01-05T10:59:07Z</time>
      </trkpt>
      <trkpt lat="46.50489" lon="6.05211">
        <ele>1269</ele>
        <time>2023-01-05T10:59:57Z</time>
      </trkpt>
      <trkpt lat="46.5051" lon="6.05215">
        <ele>1268</ele>
        <time>2023-01-05T11:00:14Z</time>
      </trkpt>
      <trkpt lat="46.50517" lon="6.05232">
        <ele>1268</ele>
        <time>2023-01-05T11:00:25Z</time>
      </trkpt>
      <trkpt lat="46.50516" lon="6.05248">
        <ele>1269</ele>
        <time>2023-01-05T11:00:34Z</time>
      </trkpt>
      <trkpt lat="46.50516" lon="6.05258">
        <ele>1271</ele>
        <time>2023-01-05T11:00:39Z</time>
      </trkpt>
      <trkpt lat="46.50503" lon="6.05283">
        <ele>1274</ele>
        <time>2023-01-05T11:00:57Z</time>
      </trkpt>
      <trkpt lat="46.50493" lon="6.05315">
        <ele>1279</ele>
        <time>2023-01-05T11:01:16Z</time>
      </trkpt>
      <trkpt lat="46.50483" lon="6.05344">
        <ele>1283</ele>
        <time>2023-01-05T11:01:34Z</time>
      </trkpt>
      <trkpt lat="46.50464" lon="6.05378">
        <ele>1286</ele>
        <time>2023-01-05T11:01:58Z</time>
      </trkpt>
      <trkpt lat="46.50444" lon="6.05412">
        <ele>1288</ele>
        <time>2023-01-05T11:02:23Z</time>
      </trkpt>
      <trkpt lat="46.50437" lon="6.05427">
        <ele>1288</ele>
        <time>2023-01-05T11:02:33Z</time>
      </trkpt>
      <trkpt lat="46.50429" lon="6.05452">
        <ele>1287</ele>
        <time>2023-01-05T11:02:48Z</time>
      </trkpt>
      <trkpt lat="46.50417" lon="6.0547">
        <ele>1287</ele>
        <time>2023-01-05T11:03:02Z</time>
      </trkpt>
      <trkpt lat="46.50454" lon="6.05462">
        <ele>1290</ele>
        <time>2023-01-05T11:03:32Z</time>
      </trkpt>
      <trkpt lat="46.50468" lon="6.05448">
        <ele>1291</ele>
        <time>2023-01-05T11:03:45Z</time>
      </trkpt>
      <trkpt lat="46.50492" lon="6.05396">
        <ele>1290</ele>
        <time>2023-01-05T11:04:20Z</time>
      </trkpt>
      <trkpt lat="46.5056" lon="6.05359">
        <ele>1286</ele>
        <time>2023-01-05T11:05:18Z</time>
      </trkpt>
      <trkpt lat="46.50573" lon="6.05365">
        <ele>1287</ele>
        <time>2023-01-05T11:05:29Z</time>
      </trkpt>
      <trkpt lat="46.50577" lon="6.05385">
        <ele>1291</ele>
        <time>2023-01-05T11:05:40Z</time>
      </trkpt>
      <trkpt lat="46.50584" lon="6.05378">
        <ele>1289</ele>
        <time>2023-01-05T11:05:47Z</time>
      </trkpt>
      <trkpt lat="46.50598" lon="6.05376">
        <ele>1288</ele>
        <time>2023-01-05T11:05:58Z</time>
      </trkpt>
      <trkpt lat="46.50626" lon="6.0539">
        <ele>1288</ele>
        <time>2023-01-05T11:06:22Z</time>
      </trkpt>
      <trkpt lat="46.50661" lon="6.05384">
        <ele>1284</ele>
        <time>2023-01-05T11:06:50Z</time>
      </trkpt>
      <trkpt lat="46.50694" lon="6.05398">
        <ele>1283</ele>
        <time>2023-01-05T11:07:18Z</time>
      </trkpt>
      <trkpt lat="46.50716" lon="6.05408">
        <ele>1282</ele>
        <time>2023-01-05T11:07:36Z</time>
      </trkpt>
      <trkpt lat="46.50754" lon="6.05408">
        <ele>1279</ele>
        <time>2023-01-05T11:08:07Z</time>
      </trkpt>
      <trkpt lat="46.50776" lon="6.05388">
        <ele>1278</ele>
        <time>2023-01-05T11:08:27Z</time>
      </trkpt>
      <trkpt lat="46.50778" lon="6.05342">
        <ele>1277</ele>
        <time>2023-01-05T11:08:53Z</time>
      </trkpt>
      <trkpt lat="46.50785" lon="6.05319">
        <ele>1275</ele>
        <time>2023-01-05T11:09:07Z</time>
      </trkpt>
      <trkpt lat="46.50797" lon="6.05298">
        <ele>1272</ele>
        <time>2023-01-05T11:09:22Z</time>
      </trkpt>
      <trkpt lat="46.5081" lon="6.05288">
        <ele>1270</ele>
        <time>2023-01-05T11:09:33Z</time>
      </trkpt>
      <trkpt lat="46.50816" lon="6.05269">
        <ele>1268</ele>
        <time>2023-01-05T11:09:45Z</time>
      </trkpt>
      <trkpt lat="46.50811" lon="6.05251">
        <ele>1266</ele>
        <time>2023-01-05T11:09:56Z</time>
      </trkpt>
      <trkpt lat="46.50811" lon="6.05238">
        <ele>1265</ele>
        <time>2023-01-05T11:10:03Z</time>
      </trkpt>
      <trkpt lat="46.50802" lon="6.05214">
        <ele>1263</ele>
        <time>2023-01-05T11:10:18Z</time>
      </trkpt>
      <trkpt lat="46.50802" lon="6.05188">
        <ele>1261</ele>
        <time>2023-01-05T11:10:32Z</time>
      </trkpt>
      <trkpt lat="46.50804" lon="6.05177">
        <ele>1260</ele>
        <time>2023-01-05T11:10:39Z</time>
      </trkpt>
      <trkpt lat="46.5082" lon="6.05155">
        <ele>1257</ele>
        <time>2023-01-05T11:10:56Z</time>
      </trkpt>
      <trkpt lat="46.50825" lon="6.05136">
        <ele>1256</ele>
        <time>2023-01-05T11:11:07Z</time>
      </trkpt>
      <trkpt lat="46.50826" lon="6.0512">
        <ele>1255</ele>
        <time>2023-01-05T11:11:16Z</time>
      </trkpt>
      <trkpt lat="46.50853" lon="6.05064">
        <ele>1248</ele>
        <time>2023-01-05T11:11:54Z</time>
      </trkpt>
      <trkpt lat="46.50859" lon="6.05037">
        <ele>1244</ele>
        <time>2023-01-05T11:12:10Z</time>
      </trkpt>
      <trkpt lat="46.50856" lon="6.05002">
        <ele>1241</ele>
        <time>2023-01-05T11:12:29Z</time>
      </trkpt>
      <trkpt lat="46.50856" lon="6.04886">
        <ele>1232</ele>
        <time>2023-01-05T11:13:33Z</time>
      </trkpt>
      <trkpt lat="46.50893" lon="6.04822">
        <ele>1223</ele>
        <time>2023-01-05T11:14:19Z</time>
      </trkpt>
      <trkpt lat="46.50896" lon="6.0479">
        <ele>1219</ele>
        <time>2023-01-05T11:14:37Z</time>
      </trkpt>
      <trkpt lat="46.50899" lon="6.04712">
        <ele>1208</ele>
        <time>2023-01-05T11:15:20Z</time>
      </trkpt>
      <trkpt lat="46.50884" lon="6.0465">
        <ele>1201</ele>
        <time>2023-01-05T11:15:56Z</time>
      </trkpt>
      <trkpt lat="46.50884" lon="6.0461">
        <ele>1194</ele>
        <time>2023-01-05T11:16:18Z</time>
      </trkpt>
      <trkpt lat="46.50889" lon="6.04573">
        <ele>1187</ele>
        <time>2023-01-05T11:16:39Z</time>
      </trkpt>
      <trkpt lat="46.50903" lon="6.04543">
        <ele>1181</ele>
        <time>2023-01-05T11:16:59Z</time>
      </trkpt>
      <trkpt lat="46.50934" lon="6.04506">
        <ele>1173</ele>
        <time>2023-01-05T11:17:31Z</time>
      </trkpt>
      <trkpt lat="46.50968" lon="6.04481">
        <ele>1165</ele>
        <time>2023-01-05T11:18:01Z</time>
      </trkpt>
      <trkpt lat="46.51004" lon="6.04459">
        <ele>1159</ele>
        <time>2023-01-05T11:18:33Z</time>
      </trkpt>
      <trkpt lat="46.51032" lon="6.04454">
        <ele>1160</ele>
        <time>2023-01-05T11:18:55Z</time>
      </trkpt>
      <trkpt lat="46.51049" lon="6.04444">
        <ele>1159</ele>
        <time>2023-01-05T11:19:10Z</time>
      </trkpt>
      <trkpt lat="46.51061" lon="6.0445">
        <ele>1161</ele>
        <time>2023-01-05T11:19:20Z</time>
      </trkpt>
      <trkpt lat="46.51076" lon="6.04452">
        <ele>1162</ele>
        <time>2023-01-05T11:19:32Z</time>
      </trkpt>
      <trkpt lat="46.51096" lon="6.04454">
        <ele>1163</ele>
        <time>2023-01-05T11:19:48Z</time>
      </trkpt>
      <trkpt lat="46.51103" lon="6.04456">
        <ele>1164</ele>
        <time>2023-01-05T11:19:54Z</time>
      </trkpt>
      <trkpt lat="46.51114" lon="6.04457">
        <ele>1164</ele>
        <time>2023-01-05T11:20:03Z</time>
      </trkpt>
      <trkpt lat="46.51127" lon="6.04454">
        <ele>1164</ele>
        <time>2023-01-05T11:20:13Z</time>
      </trkpt>
      <trkpt lat="46.51143" lon="6.04447">
        <ele>1164</ele>
        <time>2023-01-05T11:20:27Z</time>
      </trkpt>
      <trkpt lat="46.51162" lon="6.04432">
        <ele>1163</ele>
        <time>2023-01-05T11:20:44Z</time>
      </trkpt>
      <trkpt lat="46.51176" lon="6.04423">
        <ele>1163</ele>
        <time>2023-01-05T11:20:56Z</time>
      </trkpt>
      <trkpt lat="46.51189" lon="6.04421">
        <ele>1164</ele>
        <time>2023-01-05T11:21:07Z</time>
      </trkpt>
      <trkpt lat="46.51197" lon="6.0443">
        <ele>1166</ele>
        <time>2023-01-05T11:21:15Z</time>
      </trkpt>
      <trkpt lat="46.51203" lon="6.04466">
        <ele>1171</ele>
        <time>2023-01-05T11:21:35Z</time>
      </trkpt>
      <trkpt lat="46.51207" lon="6.04495">
        <ele>1174</ele>
        <time>2023-01-05T11:21:52Z</time>
      </trkpt>
      <trkpt lat="46.51217" lon="6.04537">
        <ele>1176</ele>
        <time>2023-01-05T11:22:16Z</time>
      </trkpt>
      <trkpt lat="46.51227" lon="6.04571">
        <ele>1177</ele>
        <time>2023-01-05T11:22:36Z</time>
      </trkpt>
      <trkpt lat="46.51233" lon="6.04596">
        <ele>1178</ele>
        <time>2023-01-05T11:22:51Z</time>
      </trkpt>
      <trkpt lat="46.51243" lon="6.04625">
        <ele>1177</ele>
        <time>2023-01-05T11:23:09Z</time>
      </trkpt>
      <trkpt lat="46.51253" lon="6.04651">
        <ele>1177</ele>
        <time>2023-01-05T11:23:25Z</time>
      </trkpt>
      <trkpt lat="46.51263" lon="6.04668">
        <ele>1178</ele>
        <time>2023-01-05T11:23:38Z</time>
      </trkpt>
      <trkpt lat="46.51263" lon="6.04675">
        <ele>1179</ele>
        <time>2023-01-05T11:23:41Z</time>
      </trkpt>
      <trkpt lat="46.51264" lon="6.04686">
        <ele>1179</ele>
        <time>2023-01-05T11:23:48Z</time>
      </trkpt>
      <trkpt lat="46.51263" lon="6.04711">
        <ele>1180</ele>
        <time>2023-01-05T11:24:01Z</time>
      </trkpt>
      <trkpt lat="46.51262" lon="6.04745">
        <ele>1182</ele>
        <time>2023-01-05T11:24:20Z</time>
      </trkpt>
      <trkpt lat="46.5127" lon="6.04791">
        <ele>1185</ele>
        <time>2023-01-05T11:24:46Z</time>
      </trkpt>
      <trkpt lat="46.51282" lon="6.04829">
        <ele>1189</ele>
        <time>2023-01-05T11:25:09Z</time>
      </trkpt>
      <trkpt lat="46.51284" lon="6.04847">
        <ele>1191</ele>
        <time>2023-01-05T11:25:19Z</time>
      </trkpt>
      <trkpt lat="46.51284" lon="6.04869">
        <ele>1192</ele>
        <time>2023-01-05T11:25:32Z</time>
      </trkpt>
      <trkpt lat="46.51281" lon="6.04899">
        <ele>1194</ele>
        <time>2023-01-05T11:25:48Z</time>
      </trkpt>
      <trkpt lat="46.51277" lon="6.04935">
        <ele>1197</ele>
        <time>2023-01-05T11:26:08Z</time>
      </trkpt>
      <trkpt lat="46.51269" lon="6.0497">
        <ele>1199</ele>
        <time>2023-01-05T11:26:29Z</time>
      </trkpt>
      <trkpt lat="46.51261" lon="6.05007">
        <ele>1201</ele>
        <time>2023-01-05T11:26:50Z</time>
      </trkpt>
      <trkpt lat="46.51253" lon="6.05039">
        <ele>1204</ele>
        <time>2023-01-05T11:27:09Z</time>
      </trkpt>
      <trkpt lat="46.51244" lon="6.05066">
        <ele>1206</ele>
        <time>2023-01-05T11:27:25Z</time>
      </trkpt>
      <trkpt lat="46.51245" lon="6.05088">
        <ele>1208</ele>
        <time>2023-01-05T11:27:37Z</time>
      </trkpt>
      <trkpt lat="46.51253" lon="6.05125">
        <ele>1209</ele>
        <time>2023-01-05T11:27:59Z</time>
      </trkpt>
      <trkpt lat="46.51252" lon="6.05149">
        <ele>1211</ele>
        <time>2023-01-05T11:28:12Z</time>
      </trkpt>
      <trkpt lat="46.51247" lon="6.05177">
        <ele>1213</ele>
        <time>2023-01-05T11:28:28Z</time>
      </trkpt>
      <trkpt lat="46.51247" lon="6.05212">
        <ele>1215</ele>
        <time>2023-01-05T11:28:47Z</time>
      </trkpt>
      <trkpt lat="46.51242" lon="6.05257">
        <ele>1219</ele>
        <time>2023-01-05T11:29:12Z</time>
      </trkpt>
      <trkpt lat="46.51243" lon="6.05279">
        <ele>1220</ele>
        <time>2023-01-05T11:29:25Z</time>
      </trkpt>
      <trkpt lat="46.51234" lon="6.05349">
        <ele>1223</ele>
        <time>2023-01-05T11:30:04Z</time>
      </trkpt>
      <trkpt lat="46.51209" lon="6.05398">
        <ele>1229</ele>
        <time>2023-01-05T11:30:37Z</time>
      </trkpt>
      <trkpt lat="46.51191" lon="6.05412">
        <ele>1231</ele>
        <time>2023-01-05T11:30:54Z</time>
      </trkpt>
      <trkpt lat="46.51154" lon="6.0541">
        <ele>1235</ele>
        <time>2023-01-05T11:31:23Z</time>
      </trkpt>
      <trkpt lat="46.5114" lon="6.05416">
        <ele>1237</ele>
        <time>2023-01-05T11:31:35Z</time>
      </trkpt>
      <trkpt lat="46.51125" lon="6.0543">
        <ele>1240</ele>
        <time>2023-01-05T11:31:49Z</time>
      </trkpt>
      <trkpt lat="46.51121" lon="6.05479">
        <ele>1243</ele>
        <time>2023-01-05T11:32:17Z</time>
      </trkpt>
      <trkpt lat="46.51118" lon="6.05516">
        <ele>1245</ele>
        <time>2023-01-05T11:32:37Z</time>
      </trkpt>
      <trkpt lat="46.51113" lon="6.05523">
        <ele>1245</ele>
        <time>2023-01-05T11:32:43Z</time>
      </trkpt>
      <trkpt lat="46.51109" lon="6.05537">
        <ele>1246</ele>
        <time>2023-01-05T11:32:51Z</time>
      </trkpt>
      <trkpt lat="46.51097" lon="6.05551">
        <ele>1248</ele>
        <time>2023-01-05T11:33:03Z</time>
      </trkpt>
      <trkpt lat="46.51087" lon="6.05555">
        <ele>1249</ele>
        <time>2023-01-05T11:33:12Z</time>
      </trkpt>
      <trkpt lat="46.51073" lon="6.05558">
        <ele>1251</ele>
        <time>2023-01-05T11:33:23Z</time>
      </trkpt>
      <trkpt lat="46.51057" lon="6.05566">
        <ele>1253</ele>
        <time>2023-01-05T11:33:36Z</time>
      </trkpt>
      <trkpt lat="46.51042" lon="6.0558">
        <ele>1255</ele>
        <time>2023-01-05T11:33:51Z</time>
      </trkpt>
      <trkpt lat="46.51025" lon="6.05603">
        <ele>1257</ele>
        <time>2023-01-05T11:34:09Z</time>
      </trkpt>
      <trkpt lat="46.51007" lon="6.05609">
        <ele>1260</ele>
        <time>2023-01-05T11:34:24Z</time>
      </trkpt>
      <trkpt lat="46.50998" lon="6.0561">
        <ele>1261</ele>
        <time>2023-01-05T11:34:31Z</time>
      </trkpt>
      <trkpt lat="46.50972" lon="6.05624">
        <ele>1264</ele>
        <time>2023-01-05T11:34:54Z</time>
      </trkpt>
      <trkpt lat="46.5094" lon="6.05633">
        <ele>1267</ele>
        <time>2023-01-05T11:35:20Z</time>
      </trkpt>
      <trkpt lat="46.50915" lon="6.05658">
        <ele>1271</ele>
        <time>2023-01-05T11:35:44Z</time>
      </trkpt>
      <trkpt lat="46.50888" lon="6.05709">
        <ele>1274</ele>
        <time>2023-01-05T11:36:19Z</time>
      </trkpt>
      <trkpt lat="46.50863" lon="6.05755">
        <ele>1276</ele>
        <time>2023-01-05T11:36:52Z</time>
      </trkpt>
      <trkpt lat="46.50802" lon="6.05779">
        <ele>1276</ele>
        <time>2023-01-05T11:37:42Z</time>
      </trkpt>
      <trkpt lat="46.50741" lon="6.05791">
        <ele>1275</ele>
        <time>2023-01-05T11:38:32Z</time>
      </trkpt>
      <trkpt lat="46.50708" lon="6.05826">
        <ele>1274</ele>
        <time>2023-01-05T11:39:04Z</time>
      </trkpt>
      <trkpt lat="46.50687" lon="6.0587">
        <ele>1272</ele>
        <time>2023-01-05T11:39:34Z</time>
      </trkpt>
      <trkpt lat="46.50663" lon="6.05871">
        <ele>1273</ele>
        <time>2023-01-05T11:39:53Z</time>
      </trkpt>
      <trkpt lat="46.50633" lon="6.05862">
        <ele>1272</ele>
        <time>2023-01-05T11:40:18Z</time>
      </trkpt>
      <trkpt lat="46.50587" lon="6.05862">
        <ele>1271</ele>
        <time>2023-01-05T11:40:54Z</time>
      </trkpt>
      <trkpt lat="46.50545" lon="6.05827">
        <ele>1273</ele>
        <time>2023-01-05T11:41:33Z</time>
      </trkpt>
      <trkpt lat="46.50534" lon="6.05811">
        <ele>1275</ele>
        <time>2023-01-05T11:41:46Z</time>
      </trkpt>
      <trkpt lat="46.50524" lon="6.05804">
        <ele>1276</ele>
        <time>2023-01-05T11:41:55Z</time>
      </trkpt>
      <trkpt lat="46.5051" lon="6.05805">
        <ele>1276</ele>
        <time>2023-01-05T11:42:06Z</time>
      </trkpt>
      <trkpt lat="46.50499" lon="6.05809">
        <ele>1276</ele>
        <time>2023-01-05T11:42:15Z</time>
      </trkpt>
      <trkpt lat="46.50489" lon="6.05822">
        <ele>1275</ele>
        <time>2023-01-05T11:42:26Z</time>
      </trkpt>
      <trkpt lat="46.50484" lon="6.05825">
        <ele>1275</ele>
        <time>2023-01-05T11:42:30Z</time>
      </trkpt>
      <trkpt lat="46.50475" lon="6.05828">
        <ele>1274</ele>
        <time>2023-01-05T11:42:37Z</time>
      </trkpt>
      <trkpt lat="46.50466" lon="6.05826">
        <ele>1274</ele>
        <time>2023-01-05T11:42:45Z</time>
      </trkpt>
      <trkpt lat="46.5045" lon="6.0582">
        <ele>1275</ele>
        <time>2023-01-05T11:42:58Z</time>
      </trkpt>
      <trkpt lat="46.50435" lon="6.05822">
        <ele>1274</ele>
        <time>2023-01-05T11:43:10Z</time>
      </trkpt>
      <trkpt lat="46.50431" lon="6.05821">
        <ele>1274</ele>
        <time>2023-01-05T11:43:13Z</time>
      </trkpt>
      <trkpt lat="46.50413" lon="6.05803">
        <ele>1276</ele>
        <time>2023-01-05T11:43:31Z</time>
      </trkpt>
      <trkpt lat="46.50406" lon="6.05799">
        <ele>1276</ele>
        <time>2023-01-05T11:43:37Z</time>
      </trkpt>
      <trkpt lat="46.50396" lon="6.05801">
        <ele>1275</ele>
        <time>2023-01-05T11:43:45Z</time>
      </trkpt>
      <trkpt lat="46.50377" lon="6.05812">
        <ele>1274</ele>
        <time>2023-01-05T11:44:01Z</time>
      </trkpt>
      <trkpt lat="46.5037" lon="6.05812">
        <ele>1273</ele>
        <time>2023-01-05T11:44:07Z</time>
      </trkpt>
      <trkpt lat="46.50364" lon="6.05809">
        <ele>1273</ele>
        <time>2023-01-05T11:44:12Z</time>
      </trkpt>
      <trkpt lat="46.50357" lon="6.05802">
        <ele>1273</ele>
        <time>2023-01-05T11:44:19Z</time>
      </trkpt>
      <trkpt lat="46.50347" lon="6.05786">
        <ele>1274</ele>
        <time>2023-01-05T11:44:31Z</time>
      </trkpt>
      <trkpt lat="46.50338" lon="6.05785">
        <ele>1274</ele>
        <time>2023-01-05T11:44:38Z</time>
      </trkpt>
      <trkpt lat="46.50331" lon="6.05788">
        <ele>1273</ele>
        <time>2023-01-05T11:44:44Z</time>
      </trkpt>
      <trkpt lat="46.50326" lon="6.05795">
        <ele>1272</ele>
        <time>2023-01-05T11:44:49Z</time>
      </trkpt>
      <trkpt lat="46.50319" lon="6.05813">
        <ele>1270</ele>
        <time>2023-01-05T11:45:01Z</time>
      </trkpt>
      <trkpt lat="46.50315" lon="6.0582">
        <ele>1269</ele>
        <time>2023-01-05T11:45:06Z</time>
      </trkpt>
      <trkpt lat="46.50303" lon="6.05831">
        <ele>1267</ele>
        <time>2023-01-05T11:45:17Z</time>
      </trkpt>
      <trkpt lat="46.50295" lon="6.05836">
        <ele>1265</ele>
        <time>2023-01-05T11:45:24Z</time>
      </trkpt>
      <trkpt lat="46.50263" lon="6.0585">
        <ele>1261</ele>
        <time>2023-01-05T11:45:51Z</time>
      </trkpt>
      <trkpt lat="46.50262" lon="6.05875">
        <ele>1260</ele>
        <time>2023-01-05T11:46:04Z</time>
      </trkpt>
      <trkpt lat="46.50261" lon="6.05895">
        <ele>1259</ele>
        <time>2023-01-05T11:46:15Z</time>
      </trkpt>
      <trkpt lat="46.50263" lon="6.05907">
        <ele>1259</ele>
        <time>2023-01-05T11:46:22Z</time>
      </trkpt>
      <trkpt lat="46.50273" lon="6.05932">
        <ele>1260</ele>
        <time>2023-01-05T11:46:38Z</time>
      </trkpt>
      <trkpt lat="46.50284" lon="6.05954">
        <ele>1260</ele>
        <time>2023-01-05T11:46:53Z</time>
      </trkpt>
      <trkpt lat="46.50287" lon="6.05964">
        <ele>1260</ele>
        <time>2023-01-05T11:46:59Z</time>
      </trkpt>
      <trkpt lat="46.50287" lon="6.05974">
        <ele>1260</ele>
        <time>2023-01-05T11:47:05Z</time>
      </trkpt>
      <trkpt lat="46.50287" lon="6.06007">
        <ele>1258</ele>
        <time>2023-01-05T11:47:23Z</time>
      </trkpt>
      <trkpt lat="46.50288" lon="6.06022">
        <ele>1258</ele>
        <time>2023-01-05T11:47:31Z</time>
      </trkpt>
      <trkpt lat="46.50294" lon="6.06039">
        <ele>1259</ele>
        <time>2023-01-05T11:47:42Z</time>
      </trkpt>
      <trkpt lat="46.50308" lon="6.06074">
        <ele>1260</ele>
        <time>2023-01-05T11:48:04Z</time>
      </trkpt>
      <trkpt lat="46.50337" lon="6.0613">
        <ele>1259</ele>
        <time>2023-01-05T11:48:43Z</time>
      </trkpt>
      <trkpt lat="46.50348" lon="6.06164">
        <ele>1258</ele>
        <time>2023-01-05T11:49:03Z</time>
      </trkpt>
      <trkpt lat="46.50356" lon="6.06178">
        <ele>1257</ele>
        <time>2023-01-05T11:49:13Z</time>
      </trkpt>
      <trkpt lat="46.50366" lon="6.06194">
        <ele>1256</ele>
        <time>2023-01-05T11:49:25Z</time>
      </trkpt>
      <trkpt lat="46.50393" lon="6.06227">
        <ele>1253</ele>
        <time>2023-01-05T11:49:54Z</time>
      </trkpt>
      <trkpt lat="46.50399" lon="6.06241">
        <ele>1251</ele>
        <time>2023-01-05T11:50:03Z</time>
      </trkpt>
      <trkpt lat="46.50404" lon="6.06267">
        <ele>1249</ele>
        <time>2023-01-05T11:50:18Z</time>
      </trkpt>
      <trkpt lat="46.50413" lon="6.0632">
        <ele>1247</ele>
        <time>2023-01-05T11:50:48Z</time>
      </trkpt>
      <trkpt lat="46.50417" lon="6.06341">
        <ele>1246</ele>
        <time>2023-01-05T11:51:00Z</time>
      </trkpt>
      <trkpt lat="46.50425" lon="6.06337">
        <ele>1246</ele>
        <time>2023-01-05T11:51:06Z</time>
      </trkpt>
      <trkpt lat="46.50436" lon="6.06339">
        <ele>1246</ele>
        <time>2023-01-05T11:51:15Z</time>
      </trkpt>
      <trkpt lat="46.50478" lon="6.06347">
        <ele>1246</ele>
        <time>2023-01-05T11:51:49Z</time>
      </trkpt>
      <trkpt lat="46.50521" lon="6.06356">
        <ele>1248</ele>
        <time>2023-01-05T11:52:24Z</time>
      </trkpt>
      <trkpt lat="46.5053" lon="6.0636">
        <ele>1248</ele>
        <time>2023-01-05T11:52:32Z</time>
      </trkpt>
      <trkpt lat="46.50539" lon="6.06369">
        <ele>1249</ele>
        <time>2023-01-05T11:52:40Z</time>
      </trkpt>
      <trkpt lat="46.50558" lon="6.06404">
        <ele>1250</ele>
        <time>2023-01-05T11:53:05Z</time>
      </trkpt>
      <trkpt lat="46.50592" lon="6.06457">
        <ele>1251</ele>
        <time>2023-01-05T11:53:45Z</time>
      </trkpt>
      <trkpt lat="46.50601" lon="6.06477">
        <ele>1251</ele>
        <time>2023-01-05T11:53:58Z</time>
      </trkpt>
      <trkpt lat="46.50609" lon="6.06489">
        <ele>1251</ele>
        <time>2023-01-05T11:54:07Z</time>
      </trkpt>
      <trkpt lat="46.50626" lon="6.06508">
        <ele>1252</ele>
        <time>2023-01-05T11:54:24Z</time>
      </trkpt>
      <trkpt lat="46.50632" lon="6.06519">
        <ele>1252</ele>
        <time>2023-01-05T11:54:32Z</time>
      </trkpt>
      <trkpt lat="46.50636" lon="6.0653">
        <ele>1252</ele>
        <time>2023-01-05T11:54:39Z</time>
      </trkpt>
      <trkpt lat="46.5064" lon="6.06549">
        <ele>1251</ele>
        <time>2023-01-05T11:54:50Z</time>
      </trkpt>
      <trkpt lat="46.50647" lon="6.06573">
        <ele>1250</ele>
        <time>2023-01-05T11:55:04Z</time>
      </trkpt>
      <trkpt lat="46.50652" lon="6.06588">
        <ele>1250</ele>
        <time>2023-01-05T11:55:13Z</time>
      </trkpt>
      <trkpt lat="46.50659" lon="6.06601">
        <ele>1250</ele>
        <time>2023-01-05T11:55:23Z</time>
      </trkpt>
      <trkpt lat="46.50676" lon="6.06622">
        <ele>1252</ele>
        <time>2023-01-05T11:55:40Z</time>
      </trkpt>
      <trkpt lat="46.50694" lon="6.06646">
        <ele>1253</ele>
        <time>2023-01-05T11:56:00Z</time>
      </trkpt>
      <trkpt lat="46.50703" lon="6.06661">
        <ele>1254</ele>
        <time>2023-01-05T11:56:11Z</time>
      </trkpt>
      <trkpt lat="46.50708" lon="6.06673">
        <ele>1254</ele>
        <time>2023-01-05T11:56:19Z</time>
      </trkpt>
      <trkpt lat="46.50711" lon="6.06683">
        <ele>1254</ele>
        <time>2023-01-05T11:56:25Z</time>
      </trkpt>
      <trkpt lat="46.50717" lon="6.06721">
        <ele>1255</ele>
        <time>2023-01-05T11:56:46Z</time>
      </trkpt>
      <trkpt lat="46.5072" lon="6.0674">
        <ele>1255</ele>
        <time>2023-01-05T11:56:57Z</time>
      </trkpt>
      <trkpt lat="46.50737" lon="6.06786">
        <ele>1255</ele>
        <time>2023-01-05T11:57:26Z</time>
      </trkpt>
      <trkpt lat="46.50764" lon="6.06854">
        <ele>1256</ele>
        <time>2023-01-05T11:58:09Z</time>
      </trkpt>
      <trkpt lat="46.50781" lon="6.06889">
        <ele>1258</ele>
        <time>2023-01-05T11:58:33Z</time>
      </trkpt>
      <trkpt lat="46.50808" lon="6.06931">
        <ele>1260</ele>
        <time>2023-01-05T11:59:04Z</time>
      </trkpt>
      <trkpt lat="46.50834" lon="6.06972">
        <ele>1263</ele>
        <time>2023-01-05T11:59:35Z</time>
      </trkpt>
      <trkpt lat="46.5079" lon="6.06931">
        <ele>1259</ele>
        <time>2023-01-05T12:00:17Z</time>
      </trkpt>
      <trkpt lat="46.50775" lon="6.06923">
        <ele>1258</ele>
        <time>2023-01-05T12:00:30Z</time>
      </trkpt>
      <trkpt lat="46.50762" lon="6.0691">
        <ele>1257</ele>
        <time>2023-01-05T12:00:42Z</time>
      </trkpt>
      <trkpt lat="46.50728" lon="6.06908">
        <ele>1255</ele>
        <time>2023-01-05T12:01:09Z</time>
      </trkpt>
      <trkpt lat="46.50704" lon="6.06918">
        <ele>1252</ele>
        <time>2023-01-05T12:01:29Z</time>
      </trkpt>
      <trkpt lat="46.50686" lon="6.06929">
        <ele>1250</ele>
        <time>2023-01-05T12:01:45Z</time>
      </trkpt>
      <trkpt lat="46.50673" lon="6.06927">
        <ele>1249</ele>
        <time>2023-01-05T12:01:56Z</time>
      </trkpt>
      <trkpt lat="46.50643" lon="6.069">
        <ele>1247</ele>
        <time>2023-01-05T12:02:24Z</time>
      </trkpt>
      <trkpt lat="46.50623" lon="6.06861">
        <ele>1245</ele>
        <time>2023-01-05T12:02:51Z</time>
      </trkpt>
      <trkpt lat="46.50591" lon="6.06818">
        <ele>1242</ele>
        <time>2023-01-05T12:03:25Z</time>
      </trkpt>
      <trkpt lat="46.50573" lon="6.0679">
        <ele>1243</ele>
        <time>2023-01-05T12:03:47Z</time>
      </trkpt>
      <trkpt lat="46.50548" lon="6.06763">
        <ele>1242</ele>
        <time>2023-01-05T12:04:12Z</time>
      </trkpt>
      <trkpt lat="46.50543" lon="6.0676">
        <ele>1242</ele>
        <time>2023-01-05T12:04:16Z</time>
      </trkpt>
      <trkpt lat="46.50535" lon="6.0676">
        <ele>1241</ele>
        <time>2023-01-05T12:04:22Z</time>
      </trkpt>
      <trkpt lat="46.50529" lon="6.06763">
        <ele>1240</ele>
        <time>2023-01-05T12:04:27Z</time>
      </trkpt>
      <trkpt lat="46.50524" lon="6.06767">
        <ele>1240</ele>
        <time>2023-01-05T12:04:32Z</time>
      </trkpt>
      <trkpt lat="46.50547" lon="6.06814">
        <ele>1240</ele>
        <time>2023-01-05T12:05:04Z</time>
      </trkpt>
      <trkpt lat="46.50567" lon="6.06852">
        <ele>1240</ele>
        <time>2023-01-05T12:05:30Z</time>
      </trkpt>
      <trkpt lat="46.50584" lon="6.06894">
        <ele>1242</ele>
        <time>2023-01-05T12:05:57Z</time>
      </trkpt>
      <trkpt lat="46.50606" lon="6.06946">
        <ele>1245</ele>
        <time>2023-01-05T12:06:31Z</time>
      </trkpt>
      <trkpt lat="46.50612" lon="6.06966">
        <ele>1246</ele>
        <time>2023-01-05T12:06:43Z</time>
      </trkpt>
      <trkpt lat="46.50626" lon="6.06988">
        <ele>1247</ele>
        <time>2023-01-05T12:06:59Z</time>
      </trkpt>
      <trkpt lat="46.50642" lon="6.07016">
        <ele>1249</ele>
        <time>2023-01-05T12:07:19Z</time>
      </trkpt>
      <trkpt lat="46.50654" lon="6.07027">
        <ele>1250</ele>
        <time>2023-01-05T12:07:31Z</time>
      </trkpt>
      <trkpt lat="46.50663" lon="6.07032">
        <ele>1250</ele>
        <time>2023-01-05T12:07:38Z</time>
      </trkpt>
      <trkpt lat="46.50669" lon="6.07041">
        <ele>1252</ele>
        <time>2023-01-05T12:07:45Z</time>
      </trkpt>
      <trkpt lat="46.50693" lon="6.07064">
        <ele>1256</ele>
        <time>2023-01-05T12:08:08Z</time>
      </trkpt>
      <trkpt lat="46.50724" lon="6.07086">
        <ele>1260</ele>
        <time>2023-01-05T12:08:36Z</time>
      </trkpt>
      <trkpt lat="46.50733" lon="6.07107">
        <ele>1261</ele>
        <time>2023-01-05T12:08:49Z</time>
      </trkpt>
      <trkpt lat="46.5074" lon="6.07152">
        <ele>1264</ele>
        <time>2023-01-05T12:09:15Z</time>
      </trkpt>
      <trkpt lat="46.50775" lon="6.072">
        <ele>1268</ele>
        <time>2023-01-05T12:09:53Z</time>
      </trkpt>
      <trkpt lat="46.50786" lon="6.07207">
        <ele>1268</ele>
        <time>2023-01-05T12:10:03Z</time>
      </trkpt>
      <trkpt lat="46.5081" lon="6.07249">
        <ele>1267</ele>
        <time>2023-01-05T12:10:33Z</time>
      </trkpt>
      <trkpt lat="46.50847" lon="6.0729">
        <ele>1268</ele>
        <time>2023-01-05T12:11:10Z</time>
      </trkpt>
      <trkpt lat="46.50865" lon="6.07314">
        <ele>1270</ele>
        <time>2023-01-05T12:11:30Z</time>
      </trkpt>
      <trkpt lat="46.50878" lon="6.07356">
        <ele>1271</ele>
        <time>2023-01-05T12:11:55Z</time>
      </trkpt>
      <trkpt lat="46.50908" lon="6.07423">
        <ele>1276</ele>
        <time>2023-01-05T12:12:39Z</time>
      </trkpt>
      <trkpt lat="46.50922" lon="6.07437">
        <ele>1277</ele>
        <time>2023-01-05T12:12:53Z</time>
      </trkpt>
      <trkpt lat="46.50929" lon="6.07457">
        <ele>1278</ele>
        <time>2023-01-05T12:13:05Z</time>
      </trkpt>
      <trkpt lat="46.50926" lon="6.07461">
        <ele>1278</ele>
        <time>2023-01-05T12:13:09Z</time>
      </trkpt>
      <trkpt lat="46.50921" lon="6.07464">
        <ele>1278</ele>
        <time>2023-01-05T12:13:13Z</time>
      </trkpt>
      <trkpt lat="46.50915" lon="6.07464">
        <ele>1278</ele>
        <time>2023-01-05T12:13:18Z</time>
      </trkpt>
      <trkpt lat="46.50904" lon="6.07458">
        <ele>1277</ele>
        <time>2023-01-05T12:13:27Z</time>
      </trkpt>
      <trkpt lat="46.5086" lon="6.07432">
        <ele>1275</ele>
        <time>2023-01-05T12:14:05Z</time>
      </trkpt>
      <trkpt lat="46.50879" lon="6.07467">
        <ele>1276</ele>
        <time>2023-01-05T12:14:30Z</time>
      </trkpt>
      <trkpt lat="46.50917" lon="6.07524">
        <ele>1280</ele>
        <time>2023-01-05T12:15:13Z</time>
      </trkpt>
      <trkpt lat="46.50946" lon="6.07575">
        <ele>1283</ele>
        <time>2023-01-05T12:15:50Z</time>
      </trkpt>
      <trkpt lat="46.50952" lon="6.07588">
        <ele>1283</ele>
        <time>2023-01-05T12:15:58Z</time>
      </trkpt>
      <trkpt lat="46.50951" lon="6.07599">
        <ele>1283</ele>
        <time>2023-01-05T12:16:05Z</time>
      </trkpt>
      <trkpt lat="46.50947" lon="6.07614">
        <ele>1283</ele>
        <time>2023-01-05T12:16:13Z</time>
      </trkpt>
      <trkpt lat="46.50981" lon="6.07639">
        <ele>1283</ele>
        <time>2023-01-05T12:16:44Z</time>
      </trkpt>
      <trkpt lat="46.50994" lon="6.07648">
        <ele>1284</ele>
        <time>2023-01-05T12:16:56Z</time>
      </trkpt>
      <trkpt lat="46.5101" lon="6.07653">
        <ele>1284</ele>
        <time>2023-01-05T12:17:09Z</time>
      </trkpt>
      <trkpt lat="46.51036" lon="6.07666">
        <ele>1284</ele>
        <time>2023-01-05T12:17:31Z</time>
      </trkpt>
      <trkpt lat="46.51047" lon="6.07685">
        <ele>1284</ele>
        <time>2023-01-05T12:17:44Z</time>
      </trkpt>
      <trkpt lat="46.51036" lon="6.07666">
        <ele>1284</ele>
        <time>2023-01-05T12:17:58Z</time>
      </trkpt>
      <trkpt lat="46.51009" lon="6.07653">
        <ele>1284</ele>
        <time>2023-01-05T12:18:21Z</time>
      </trkpt>
      <trkpt lat="46.50994" lon="6.07647">
        <ele>1284</ele>
        <time>2023-01-05T12:18:33Z</time>
      </trkpt>
      <trkpt lat="46.50981" lon="6.07639">
        <ele>1283</ele>
        <time>2023-01-05T12:18:45Z</time>
      </trkpt>
      <trkpt lat="46.50947" lon="6.07614">
        <ele>1283</ele>
        <time>2023-01-05T12:19:15Z</time>
      </trkpt>
      <trkpt lat="46.50951" lon="6.07599">
        <ele>1283</ele>
        <time>2023-01-05T12:19:24Z</time>
      </trkpt>
      <trkpt lat="46.50951" lon="6.07588">
        <ele>1283</ele>
        <time>2023-01-05T12:19:30Z</time>
      </trkpt>
      <trkpt lat="46.50945" lon="6.07575">
        <ele>1283</ele>
        <time>2023-01-05T12:19:39Z</time>
      </trkpt>
      <trkpt lat="46.50916" lon="6.07523">
        <ele>1280</ele>
        <time>2023-01-05T12:20:15Z</time>
      </trkpt>
      <trkpt lat="46.50894" lon="6.07491">
        <ele>1278</ele>
        <time>2023-01-05T12:20:40Z</time>
      </trkpt>
      <trkpt lat="46.50881" lon="6.07541">
        <ele>1279</ele>
        <time>2023-01-05T12:21:10Z</time>
      </trkpt>
      <trkpt lat="46.50875" lon="6.07563">
        <ele>1280</ele>
        <time>2023-01-05T12:21:23Z</time>
      </trkpt>
      <trkpt lat="46.50861" lon="6.07602">
        <ele>1280</ele>
        <time>2023-01-05T12:21:47Z</time>
      </trkpt>
      <trkpt lat="46.50856" lon="6.07608">
        <ele>1279</ele>
        <time>2023-01-05T12:21:52Z</time>
      </trkpt>
      <trkpt lat="46.50841" lon="6.07611">
        <ele>1278</ele>
        <time>2023-01-05T12:22:04Z</time>
      </trkpt>
      <trkpt lat="46.50829" lon="6.07611">
        <ele>1277</ele>
        <time>2023-01-05T12:22:14Z</time>
      </trkpt>
      <trkpt lat="46.50802" lon="6.07612">
        <ele>1273</ele>
        <time>2023-01-05T12:22:36Z</time>
      </trkpt>
      <trkpt lat="46.50767" lon="6.07615">
        <ele>1268</ele>
        <time>2023-01-05T12:23:04Z</time>
      </trkpt>
      <trkpt lat="46.5073" lon="6.07616">
        <ele>1261</ele>
        <time>2023-01-05T12:23:33Z</time>
      </trkpt>
      <trkpt lat="46.50694" lon="6.07616">
        <ele>1254</ele>
        <time>2023-01-05T12:24:02Z</time>
      </trkpt>
      <trkpt lat="46.50676" lon="6.07617">
        <ele>1250</ele>
        <time>2023-01-05T12:24:17Z</time>
      </trkpt>
      <trkpt lat="46.50667" lon="6.0762">
        <ele>1248</ele>
        <time>2023-01-05T12:24:24Z</time>
      </trkpt>
      <trkpt lat="46.50655" lon="6.07617">
        <ele>1246</ele>
        <time>2023-01-05T12:24:34Z</time>
      </trkpt>
      <trkpt lat="46.50617" lon="6.07621">
        <ele>1239</ele>
        <time>2023-01-05T12:25:04Z</time>
      </trkpt>
      <trkpt lat="46.50602" lon="6.07627">
        <ele>1237</ele>
        <time>2023-01-05T12:25:17Z</time>
      </trkpt>
      <trkpt lat="46.50606" lon="6.07643">
        <ele>1236</ele>
        <time>2023-01-05T12:25:26Z</time>
      </trkpt>
      <trkpt lat="46.50619" lon="6.07656">
        <ele>1237</ele>
        <time>2023-01-05T12:25:39Z</time>
      </trkpt>
      <trkpt lat="46.50624" lon="6.07667">
        <ele>1237</ele>
        <time>2023-01-05T12:25:46Z</time>
      </trkpt>
      <trkpt lat="46.50632" lon="6.07676">
        <ele>1238</ele>
        <time>2023-01-05T12:25:54Z</time>
      </trkpt>
      <trkpt lat="46.50635" lon="6.07683">
        <ele>1238</ele>
        <time>2023-01-05T12:25:59Z</time>
      </trkpt>
      <trkpt lat="46.50634" lon="6.07692">
        <ele>1237</ele>
        <time>2023-01-05T12:26:04Z</time>
      </trkpt>
      <trkpt lat="46.50639" lon="6.07694">
        <ele>1238</ele>
        <time>2023-01-05T12:26:08Z</time>
      </trkpt>
      <trkpt lat="46.50639" lon="6.07703">
        <ele>1237</ele>
        <time>2023-01-05T12:26:13Z</time>
      </trkpt>
      <trkpt lat="46.50651" lon="6.07702">
        <ele>1239</ele>
        <time>2023-01-05T12:26:22Z</time>
      </trkpt>
      <trkpt lat="46.50656" lon="6.07708">
        <ele>1239</ele>
        <time>2023-01-05T12:26:28Z</time>
      </trkpt>
      <trkpt lat="46.50662" lon="6.07724">
        <ele>1239</ele>
        <time>2023-01-05T12:26:38Z</time>
      </trkpt>
      <trkpt lat="46.50662" lon="6.07739">
        <ele>1238</ele>
        <time>2023-01-05T12:26:46Z</time>
      </trkpt>
      <trkpt lat="46.50656" lon="6.07747">
        <ele>1237</ele>
        <time>2023-01-05T12:26:52Z</time>
      </trkpt>
      <trkpt lat="46.50634" lon="6.07756">
        <ele>1233</ele>
        <time>2023-01-05T12:27:11Z</time>
      </trkpt>
      <trkpt lat="46.50613" lon="6.07761">
        <ele>1230</ele>
        <time>2023-01-05T12:27:28Z</time>
      </trkpt>
      <trkpt lat="46.50593" lon="6.07783">
        <ele>1225</ele>
        <time>2023-01-05T12:27:48Z</time>
      </trkpt>
      <trkpt lat="46.50588" lon="6.07794">
        <ele>1224</ele>
        <time>2023-01-05T12:27:55Z</time>
      </trkpt>
      <trkpt lat="46.50564" lon="6.07815">
        <ele>1218</ele>
        <time>2023-01-05T12:28:18Z</time>
      </trkpt>
      <trkpt lat="46.50554" lon="6.07818">
        <ele>1216</ele>
        <time>2023-01-05T12:28:26Z</time>
      </trkpt>
      <trkpt lat="46.50535" lon="6.078">
        <ele>1214</ele>
        <time>2023-01-05T12:28:44Z</time>
      </trkpt>
      <trkpt lat="46.50527" lon="6.078">
        <ele>1213</ele>
        <time>2023-01-05T12:28:50Z</time>
      </trkpt>
      <trkpt lat="46.50526" lon="6.07813">
        <ele>1211</ele>
        <time>2023-01-05T12:28:58Z</time>
      </trkpt>
      <trkpt lat="46.50547" lon="6.07871">
        <ele>1209</ele>
        <time>2023-01-05T12:29:34Z</time>
      </trkpt>
      <trkpt lat="46.50555" lon="6.07898">
        <ele>1207</ele>
        <time>2023-01-05T12:29:50Z</time>
      </trkpt>
      <trkpt lat="46.50557" lon="6.07913">
        <ele>1206</ele>
        <time>2023-01-05T12:29:58Z</time>
      </trkpt>
      <trkpt lat="46.5055" lon="6.07938">
        <ele>1202</ele>
        <time>2023-01-05T12:30:13Z</time>
      </trkpt>
      <trkpt lat="46.50543" lon="6.0795">
        <ele>1199</ele>
        <time>2023-01-05T12:30:22Z</time>
      </trkpt>
      <trkpt lat="46.50535" lon="6.07955">
        <ele>1197</ele>
        <time>2023-01-05T12:30:29Z</time>
      </trkpt>
      <trkpt lat="46.50534" lon="6.07963">
        <ele>1196</ele>
        <time>2023-01-05T12:30:33Z</time>
      </trkpt>
      <trkpt lat="46.50536" lon="6.07977">
        <ele>1194</ele>
        <time>2023-01-05T12:30:41Z</time>
      </trkpt>
      <trkpt lat="46.50557" lon="6.08018">
        <ele>1195</ele>
        <time>2023-01-05T12:31:09Z</time>
      </trkpt>
      <trkpt lat="46.50563" lon="6.08057">
        <ele>1193</ele>
        <time>2023-01-05T12:31:31Z</time>
      </trkpt>
      <trkpt lat="46.50562" lon="6.08082">
        <ele>1191</ele>
        <time>2023-01-05T12:31:45Z</time>
      </trkpt>
      <trkpt lat="46.5056" lon="6.08093">
        <ele>1190</ele>
        <time>2023-01-05T12:31:51Z</time>
      </trkpt>
      <trkpt lat="46.50561" lon="6.08104">
        <ele>1189</ele>
        <time>2023-01-05T12:31:58Z</time>
      </trkpt>
      <trkpt lat="46.5057" lon="6.08151">
        <ele>1188</ele>
        <time>2023-01-05T12:32:24Z</time>
      </trkpt>
      <trkpt lat="46.50579" lon="6.08175">
        <ele>1188</ele>
        <time>2023-01-05T12:32:39Z</time>
      </trkpt>
      <trkpt lat="46.50578" lon="6.08184">
        <ele>1187</ele>
        <time>2023-01-05T12:32:44Z</time>
      </trkpt>
      <trkpt lat="46.50575" lon="6.08199">
        <ele>1185</ele>
        <time>2023-01-05T12:32:53Z</time>
      </trkpt>
      <trkpt lat="46.50572" lon="6.08216">
        <ele>1183</ele>
        <time>2023-01-05T12:33:03Z</time>
      </trkpt>
      <trkpt lat="46.50569" lon="6.0822">
        <ele>1182</ele>
        <time>2023-01-05T12:33:06Z</time>
      </trkpt>
      <trkpt lat="46.50562" lon="6.0822">
        <ele>1181</ele>
        <time>2023-01-05T12:33:12Z</time>
      </trkpt>
      <trkpt lat="46.5055" lon="6.08211">
        <ele>1179</ele>
        <time>2023-01-05T12:33:22Z</time>
      </trkpt>
      <trkpt lat="46.50536" lon="6.08205">
        <ele>1178</ele>
        <time>2023-01-05T12:33:34Z</time>
      </trkpt>
      <trkpt lat="46.50528" lon="6.08205">
        <ele>1176</ele>
        <time>2023-01-05T12:33:41Z</time>
      </trkpt>
      <trkpt lat="46.50508" lon="6.08222">
        <ele>1171</ele>
        <time>2023-01-05T12:33:59Z</time>
      </trkpt>
      <trkpt lat="46.50488" lon="6.08232">
        <ele>1164</ele>
        <time>2023-01-05T12:34:16Z</time>
      </trkpt>
      <trkpt lat="46.50469" lon="6.08238">
        <ele>1156</ele>
        <time>2023-01-05T12:34:32Z</time>
      </trkpt>
      <trkpt lat="46.50454" lon="6.08235">
        <ele>1150</ele>
        <time>2023-01-05T12:34:44Z</time>
      </trkpt>
      <trkpt lat="46.50431" lon="6.08206">
        <ele>1147</ele>
        <time>2023-01-05T12:35:08Z</time>
      </trkpt>
      <trkpt lat="46.50411" lon="6.08169">
        <ele>1147</ele>
        <time>2023-01-05T12:35:34Z</time>
      </trkpt>
      <trkpt lat="46.50391" lon="6.08149">
        <ele>1142</ele>
        <time>2023-01-05T12:35:53Z</time>
      </trkpt>
      <trkpt lat="46.50371" lon="6.08135">
        <ele>1136</ele>
        <time>2023-01-05T12:36:11Z</time>
      </trkpt>
      <trkpt lat="46.50356" lon="6.08125">
        <ele>1131</ele>
        <time>2023-01-05T12:36:24Z</time>
      </trkpt>
      <trkpt lat="46.50342" lon="6.081">
        <ele>1132</ele>
        <time>2023-01-05T12:36:42Z</time>
      </trkpt>
      <trkpt lat="46.50329" lon="6.0808">
        <ele>1132</ele>
        <time>2023-01-05T12:36:57Z</time>
      </trkpt>
      <trkpt lat="46.5031" lon="6.08062">
        <ele>1128</ele>
        <time>2023-01-05T12:37:16Z</time>
      </trkpt>
      <trkpt lat="46.50274" lon="6.08037">
        <ele>1118</ele>
        <time>2023-01-05T12:37:47Z</time>
      </trkpt>
      <trkpt lat="46.50258" lon="6.08023">
        <ele>1115</ele>
        <time>2023-01-05T12:38:02Z</time>
      </trkpt>
      <trkpt lat="46.50233" lon="6.08004">
        <ele>1110</ele>
        <time>2023-01-05T12:38:25Z</time>
      </trkpt>
      <trkpt lat="46.50197" lon="6.0797">
        <ele>1103</ele>
        <time>2023-01-05T12:38:59Z</time>
      </trkpt>
      <trkpt lat="46.50167" lon="6.07935">
        <ele>1100</ele>
        <time>2023-01-05T12:39:30Z</time>
      </trkpt>
      <trkpt lat="46.50139" lon="6.07906">
        <ele>1094</ele>
        <time>2023-01-05T12:39:58Z</time>
      </trkpt>
      <trkpt lat="46.50133" lon="6.07899">
        <ele>1093</ele>
        <time>2023-01-05T12:40:04Z</time>
      </trkpt>
      <trkpt lat="46.50129" lon="6.07892">
        <ele>1092</ele>
        <time>2023-01-05T12:40:09Z</time>
      </trkpt>
      <trkpt lat="46.50117" lon="6.07881">
        <ele>1089</ele>
        <time>2023-01-05T12:40:20Z</time>
      </trkpt>
      <trkpt lat="46.50116" lon="6.07875">
        <ele>1090</ele>
        <time>2023-01-05T12:40:24Z</time>
      </trkpt>
      <trkpt lat="46.5011" lon="6.07872">
        <ele>1087</ele>
        <time>2023-01-05T12:40:29Z</time>
      </trkpt>
      <trkpt lat="46.50093" lon="6.07852">
        <ele>1084</ele>
        <time>2023-01-05T12:40:46Z</time>
      </trkpt>
      <trkpt lat="46.50083" lon="6.07838">
        <ele>1082</ele>
        <time>2023-01-05T12:40:57Z</time>
      </trkpt>
      <trkpt lat="46.5008" lon="6.07835">
        <ele>1082</ele>
        <time>2023-01-05T12:41:00Z</time>
      </trkpt>
      <trkpt lat="46.50077" lon="6.07838">
        <ele>1080</ele>
        <time>2023-01-05T12:41:03Z</time>
      </trkpt>
      <trkpt lat="46.50055" lon="6.07803">
        <ele>1081</ele>
        <time>2023-01-05T12:41:29Z</time>
      </trkpt>
      <trkpt lat="46.50028" lon="6.07759">
        <ele>1079</ele>
        <time>2023-01-05T12:42:02Z</time>
      </trkpt>
      <trkpt lat="46.50025" lon="6.07764">
        <ele>1077</ele>
        <time>2023-01-05T12:42:05Z</time>
      </trkpt>
      <trkpt lat="46.5003" lon="6.07782">
        <ele>1076</ele>
        <time>2023-01-05T12:42:16Z</time>
      </trkpt>
      <trkpt lat="46.5003" lon="6.0779">
        <ele>1074</ele>
        <time>2023-01-05T12:42:21Z</time>
      </trkpt>
      <trkpt lat="46.50028" lon="6.07797">
        <ele>1072</ele>
        <time>2023-01-05T12:42:25Z</time>
      </trkpt>
      <trkpt lat="46.50024" lon="6.07799">
        <ele>1070</ele>
        <time>2023-01-05T12:42:28Z</time>
      </trkpt>
      <trkpt lat="46.50019" lon="6.07798">
        <ele>1068</ele>
        <time>2023-01-05T12:42:32Z</time>
      </trkpt>
      <trkpt lat="46.50014" lon="6.07801">
        <ele>1066</ele>
        <time>2023-01-05T12:42:37Z</time>
      </trkpt>
      <trkpt lat="46.50007" lon="6.07813">
        <ele>1061</ele>
        <time>2023-01-05T12:42:45Z</time>
      </trkpt>
      <trkpt lat="46.49993" lon="6.07831">
        <ele>1056</ele>
        <time>2023-01-05T12:43:00Z</time>
      </trkpt>
      <trkpt lat="46.49986" lon="6.0783">
        <ele>1056</ele>
        <time>2023-01-05T12:43:06Z</time>
      </trkpt>
      <trkpt lat="46.49966" lon="6.07827">
        <ele>1057</ele>
        <time>2023-01-05T12:43:22Z</time>
      </trkpt>
      <trkpt lat="46.49951" lon="6.07829">
        <ele>1056</ele>
        <time>2023-01-05T12:43:34Z</time>
      </trkpt>
      <trkpt lat="46.4994" lon="6.07826">
        <ele>1056</ele>
        <time>2023-01-05T12:43:43Z</time>
      </trkpt>
      <trkpt lat="46.49927" lon="6.07824">
        <ele>1056</ele>
        <time>2023-01-05T12:43:53Z</time>
      </trkpt>
      <trkpt lat="46.49913" lon="6.0783">
        <ele>1056</ele>
        <time>2023-01-05T12:44:05Z</time>
      </trkpt>
      <trkpt lat="46.49896" lon="6.07847">
        <ele>1056</ele>
        <time>2023-01-05T12:44:22Z</time>
      </trkpt>
      <trkpt lat="46.49884" lon="6.07859">
        <ele>1056</ele>
        <time>2023-01-05T12:44:33Z</time>
      </trkpt>
      <trkpt lat="46.49867" lon="6.07876">
        <ele>1056</ele>
        <time>2023-01-05T12:44:50Z</time>
      </trkpt>
      <trkpt lat="46.49851" lon="6.0792">
        <ele>1056</ele>
        <time>2023-01-05T12:45:17Z</time>
      </trkpt>
      <trkpt lat="46.49839" lon="6.0795">
        <ele>1056</ele>
        <time>2023-01-05T12:45:36Z</time>
      </trkpt>
      <trkpt lat="46.49833" lon="6.07973">
        <ele>1056</ele>
        <time>2023-01-05T12:45:50Z</time>
      </trkpt>
      <trkpt lat="46.49816" lon="6.07989">
        <ele>1056</ele>
        <time>2023-01-05T12:46:06Z</time>
      </trkpt>
      <trkpt lat="46.49808" lon="6.07988">
        <ele>1056</ele>
        <time>2023-01-05T12:46:13Z</time>
      </trkpt>
      <trkpt lat="46.49799" lon="6.08025">
        <ele>1056</ele>
        <time>2023-01-05T12:46:34Z</time>
      </trkpt>
      <trkpt lat="46.49806" lon="6.08098">
        <ele>1057</ele>
        <time>2023-01-05T12:47:15Z</time>
      </trkpt>
      <trkpt lat="46.49802" lon="6.08137">
        <ele>1057</ele>
        <time>2023-01-05T12:47:37Z</time>
      </trkpt>
      <trkpt lat="46.49786" lon="6.08168">
        <ele>1058</ele>
        <time>2023-01-05T12:47:58Z</time>
      </trkpt>
      <trkpt lat="46.49771" lon="6.08199">
        <ele>1059</ele>
        <time>2023-01-05T12:48:19Z</time>
      </trkpt>
      <trkpt lat="46.49752" lon="6.08241">
        <ele>1061</ele>
        <time>2023-01-05T12:48:46Z</time>
      </trkpt>
      <trkpt lat="46.49746" lon="6.08222">
        <ele>1060</ele>
        <time>2023-01-05T12:48:58Z</time>
      </trkpt>
      <trkpt lat="46.49742" lon="6.08221">
        <ele>1060</ele>
        <time>2023-01-05T12:49:01Z</time>
      </trkpt>
      <trkpt lat="46.49738" lon="6.08218">
        <ele>1060</ele>
        <time>2023-01-05T12:49:05Z</time>
      </trkpt>
      <trkpt lat="46.49736" lon="6.08213">
        <ele>1060</ele>
        <time>2023-01-05T12:49:08Z</time>
      </trkpt>
      <trkpt lat="46.49727" lon="6.08202">
        <ele>1061</ele>
        <time>2023-01-05T12:49:17Z</time>
      </trkpt>
      <trkpt lat="46.49719" lon="6.08197">
        <ele>1061</ele>
        <time>2023-01-05T12:49:24Z</time>
      </trkpt>
      <trkpt lat="46.49709" lon="6.08192">
        <ele>1061</ele>
        <time>2023-01-05T12:49:33Z</time>
      </trkpt>
      <trkpt lat="46.49704" lon="6.08182">
        <ele>1062</ele>
        <time>2023-01-05T12:49:40Z</time>
      </trkpt>
      <trkpt lat="46.49697" lon="6.08167">
        <ele>1062</ele>
        <time>2023-01-05T12:49:50Z</time>
      </trkpt>
      <trkpt lat="46.4969" lon="6.08164">
        <ele>1063</ele>
        <time>2023-01-05T12:49:56Z</time>
      </trkpt>
      <trkpt lat="46.49663" lon="6.08129">
        <ele>1063</ele>
        <time>2023-01-05T12:50:25Z</time>
      </trkpt>
      <trkpt lat="46.49641" lon="6.08112">
        <ele>1064</ele>
        <time>2023-01-05T12:50:44Z</time>
      </trkpt>
      <trkpt lat="46.49634" lon="6.08108">
        <ele>1064</ele>
        <time>2023-01-05T12:50:50Z</time>
      </trkpt>
      <trkpt lat="46.49626" lon="6.08093">
        <ele>1064</ele>
        <time>2023-01-05T12:51:01Z</time>
      </trkpt>
      <trkpt lat="46.49618" lon="6.08089">
        <ele>1065</ele>
        <time>2023-01-05T12:51:08Z</time>
      </trkpt>
      <trkpt lat="46.49613" lon="6.08073">
        <ele>1065</ele>
        <time>2023-01-05T12:51:17Z</time>
      </trkpt>
      <trkpt lat="46.49604" lon="6.08056">
        <ele>1065</ele>
        <time>2023-01-05T12:51:29Z</time>
      </trkpt>
      <trkpt lat="46.496" lon="6.08037">
        <ele>1065</ele>
        <time>2023-01-05T12:51:40Z</time>
      </trkpt>
      <trkpt lat="46.49575" lon="6.08032">
        <ele>1066</ele>
        <time>2023-01-05T12:52:00Z</time>
      </trkpt>
      <trkpt lat="46.49565" lon="6.08025">
        <ele>1066</ele>
        <time>2023-01-05T12:52:09Z</time>
      </trkpt>
      <trkpt lat="46.49558" lon="6.08015">
        <ele>1066</ele>
        <time>2023-01-05T12:52:17Z</time>
      </trkpt>
      <trkpt lat="46.49556" lon="6.08">
        <ele>1066</ele>
        <time>2023-01-05T12:52:26Z</time>
      </trkpt>
      <trkpt lat="46.49545" lon="6.07971">
        <ele>1067</ele>
        <time>2023-01-05T12:52:44Z</time>
      </trkpt>
      <trkpt lat="46.49535" lon="6.07921">
        <ele>1068</ele>
        <time>2023-01-05T12:53:13Z</time>
      </trkpt>
      <trkpt lat="46.49533" lon="6.079">
        <ele>1069</ele>
        <time>2023-01-05T12:53:24Z</time>
      </trkpt>
      <trkpt lat="46.49529" lon="6.07901">
        <ele>1069</ele>
        <time>2023-01-05T12:53:27Z</time>
      </trkpt>
      <trkpt lat="46.49519" lon="6.07897">
        <ele>1070</ele>
        <time>2023-01-05T12:53:36Z</time>
      </trkpt>
      <trkpt lat="46.49504" lon="6.07876">
        <ele>1072</ele>
        <time>2023-01-05T12:53:52Z</time>
      </trkpt>
      <trkpt lat="46.49498" lon="6.07853">
        <ele>1074</ele>
        <time>2023-01-05T12:54:06Z</time>
      </trkpt>
      <trkpt lat="46.49487" lon="6.07827">
        <ele>1075</ele>
        <time>2023-01-05T12:54:23Z</time>
      </trkpt>
      <trkpt lat="46.49467" lon="6.07794">
        <ele>1078</ele>
        <time>2023-01-05T12:54:47Z</time>
      </trkpt>
      <trkpt lat="46.49448" lon="6.07784">
        <ele>1080</ele>
        <time>2023-01-05T12:55:03Z</time>
      </trkpt>
      <trkpt lat="46.4942" lon="6.07747">
        <ele>1085</ele>
        <time>2023-01-05T12:55:34Z</time>
      </trkpt>
      <trkpt lat="46.49411" lon="6.07726">
        <ele>1084</ele>
        <time>2023-01-05T12:55:47Z</time>
      </trkpt>
      <trkpt lat="46.49392" lon="6.0769">
        <ele>1083</ele>
        <time>2023-01-05T12:56:12Z</time>
      </trkpt>
      <trkpt lat="46.4938" lon="6.07672">
        <ele>1082</ele>
        <time>2023-01-05T12:56:26Z</time>
      </trkpt>
      <trkpt lat="46.49371" lon="6.07648">
        <ele>1083</ele>
        <time>2023-01-05T12:56:41Z</time>
      </trkpt>
      <trkpt lat="46.49372" lon="6.07637">
        <ele>1083</ele>
        <time>2023-01-05T12:56:47Z</time>
      </trkpt>
      <trkpt lat="46.49377" lon="6.0763">
        <ele>1083</ele>
        <time>2023-01-05T12:56:53Z</time>
      </trkpt>
      <trkpt lat="46.49332" lon="6.07576">
        <ele>1085</ele>
        <time>2023-01-05T12:57:39Z</time>
      </trkpt>
      <trkpt lat="46.49321" lon="6.07565">
        <ele>1085</ele>
        <time>2023-01-05T12:57:50Z</time>
      </trkpt>
      <trkpt lat="46.49309" lon="6.07537">
        <ele>1086</ele>
        <time>2023-01-05T12:58:08Z</time>
      </trkpt>
      <trkpt lat="46.49273" lon="6.07547">
        <ele>1088</ele>
        <time>2023-01-05T12:58:38Z</time>
      </trkpt>
      <trkpt lat="46.49239" lon="6.07562">
        <ele>1090</ele>
        <time>2023-01-05T12:59:06Z</time>
      </trkpt>
      <trkpt lat="46.49217" lon="6.07568">
        <ele>1092</ele>
        <time>2023-01-05T12:59:24Z</time>
      </trkpt>
      <trkpt lat="46.49201" lon="6.07571">
        <ele>1094</ele>
        <time>2023-01-05T12:59:37Z</time>
      </trkpt>
      <trkpt lat="46.49188" lon="6.0754">
        <ele>1097</ele>
        <time>2023-01-05T12:59:57Z</time>
      </trkpt>
      <trkpt lat="46.4918" lon="6.07533">
        <ele>1098</ele>
        <time>2023-01-05T13:00:04Z</time>
      </trkpt>
      <trkpt lat="46.49174" lon="6.07538">
        <ele>1099</ele>
        <time>2023-01-05T13:00:10Z</time>
      </trkpt>
      <trkpt lat="46.49164" lon="6.07525">
        <ele>1101</ele>
        <time>2023-01-05T13:00:21Z</time>
      </trkpt>
      <trkpt lat="46.49156" lon="6.07497">
        <ele>1102</ele>
        <time>2023-01-05T13:00:37Z</time>
      </trkpt>
      <trkpt lat="46.4914" lon="6.07463">
        <ele>1104</ele>
        <time>2023-01-05T13:01:00Z</time>
      </trkpt>
      <trkpt lat="46.49125" lon="6.07442">
        <ele>1107</ele>
        <time>2023-01-05T13:01:17Z</time>
      </trkpt>
      <trkpt lat="46.49118" lon="6.07425">
        <ele>1109</ele>
        <time>2023-01-05T13:01:28Z</time>
      </trkpt>
      <trkpt lat="46.49111" lon="6.07396">
        <ele>1112</ele>
        <time>2023-01-05T13:01:45Z</time>
      </trkpt>
      <trkpt lat="46.49093" lon="6.07368">
        <ele>1117</ele>
        <time>2023-01-05T13:02:06Z</time>
      </trkpt>
      <trkpt lat="46.49079" lon="6.07351">
        <ele>1121</ele>
        <time>2023-01-05T13:02:20Z</time>
      </trkpt>
      <trkpt lat="46.49062" lon="6.07315">
        <ele>1121</ele>
        <time>2023-01-05T13:02:44Z</time>
      </trkpt>
      <trkpt lat="46.49045" lon="6.07286">
        <ele>1120</ele>
        <time>2023-01-05T13:03:05Z</time>
      </trkpt>
      <trkpt lat="46.49031" lon="6.07247">
        <ele>1120</ele>
        <time>2023-01-05T13:03:30Z</time>
      </trkpt>
      <trkpt lat="46.49022" lon="6.07231">
        <ele>1121</ele>
        <time>2023-01-05T13:03:41Z</time>
      </trkpt>
      <trkpt lat="46.49007" lon="6.07211">
        <ele>1123</ele>
        <time>2023-01-05T13:03:57Z</time>
      </trkpt>
      <trkpt lat="46.48974" lon="6.07176">
        <ele>1125</ele>
        <time>2023-01-05T13:04:30Z</time>
      </trkpt>
      <trkpt lat="46.48962" lon="6.07151">
        <ele>1123</ele>
        <time>2023-01-05T13:04:47Z</time>
      </trkpt>
      <trkpt lat="46.4896" lon="6.07135">
        <ele>1121</ele>
        <time>2023-01-05T13:04:56Z</time>
      </trkpt>
      <trkpt lat="46.48928" lon="6.07087">
        <ele>1119</ele>
        <time>2023-01-05T13:05:33Z</time>
      </trkpt>
      <trkpt lat="46.48917" lon="6.0707">
        <ele>1118</ele>
        <time>2023-01-05T13:05:46Z</time>
      </trkpt>
      <trkpt lat="46.48911" lon="6.07055">
        <ele>1116</ele>
        <time>2023-01-05T13:05:55Z</time>
      </trkpt>
      <trkpt lat="46.48908" lon="6.07036">
        <ele>1114</ele>
        <time>2023-01-05T13:06:06Z</time>
      </trkpt>
      <trkpt lat="46.48903" lon="6.07027">
        <ele>1112</ele>
        <time>2023-01-05T13:06:12Z</time>
      </trkpt>
      <trkpt lat="46.48912" lon="6.07017">
        <ele>1112</ele>
        <time>2023-01-05T13:06:21Z</time>
      </trkpt>
      <trkpt lat="46.48918" lon="6.07001">
        <ele>1110</ele>
        <time>2023-01-05T13:06:31Z</time>
      </trkpt>
      <trkpt lat="46.48929" lon="6.06969">
        <ele>1109</ele>
        <time>2023-01-05T13:06:51Z</time>
      </trkpt>
      <trkpt lat="46.48937" lon="6.06932">
        <ele>1108</ele>
        <time>2023-01-05T13:07:12Z</time>
      </trkpt>
      <trkpt lat="46.48941" lon="6.06898">
        <ele>1106</ele>
        <time>2023-01-05T13:07:32Z</time>
      </trkpt>
      <trkpt lat="46.48942" lon="6.06884">
        <ele>1106</ele>
        <time>2023-01-05T13:07:39Z</time>
      </trkpt>
      <trkpt lat="46.48942" lon="6.06868">
        <ele>1105</ele>
        <time>2023-01-05T13:07:48Z</time>
      </trkpt>
      <trkpt lat="46.48934" lon="6.06821">
        <ele>1103</ele>
        <time>2023-01-05T13:08:15Z</time>
      </trkpt>
      <trkpt lat="46.48929" lon="6.06776">
        <ele>1100</ele>
        <time>2023-01-05T13:08:40Z</time>
      </trkpt>
      <trkpt lat="46.48929" lon="6.06762">
        <ele>1098</ele>
        <time>2023-01-05T13:08:48Z</time>
      </trkpt>
      <trkpt lat="46.4893" lon="6.06756">
        <ele>1098</ele>
        <time>2023-01-05T13:08:51Z</time>
      </trkpt>
      <trkpt lat="46.48899" lon="6.06739">
        <ele>1098</ele>
        <time>2023-01-05T13:09:18Z</time>
      </trkpt>
      <trkpt lat="46.48866" lon="6.06722">
        <ele>1098</ele>
        <time>2023-01-05T13:09:46Z</time>
      </trkpt>
      <trkpt lat="46.48845" lon="6.0671">
        <ele>1099</ele>
        <time>2023-01-05T13:10:04Z</time>
      </trkpt>
      <trkpt lat="46.48848" lon="6.06695">
        <ele>1099</ele>
        <time>2023-01-05T13:10:12Z</time>
      </trkpt>
      <trkpt lat="46.48849" lon="6.06645">
        <ele>1099</ele>
        <time>2023-01-05T13:10:40Z</time>
      </trkpt>
      <trkpt lat="46.48851" lon="6.06592">
        <ele>1100</ele>
        <time>2023-01-05T13:11:09Z</time>
      </trkpt>
      <trkpt lat="46.48852" lon="6.06564">
        <ele>1100</ele>
        <time>2023-01-05T13:11:25Z</time>
      </trkpt>
      <trkpt lat="46.48852" lon="6.0653">
        <ele>1099</ele>
        <time>2023-01-05T13:11:43Z</time>
      </trkpt>
      <trkpt lat="46.48841" lon="6.06527">
        <ele>1099</ele>
        <time>2023-01-05T13:11:52Z</time>
      </trkpt>
      <trkpt lat="46.4883" lon="6.06517">
        <ele>1099</ele>
        <time>2023-01-05T13:12:03Z</time>
      </trkpt>
      <trkpt lat="46.48821" lon="6.06502">
        <ele>1099</ele>
        <time>2023-01-05T13:12:14Z</time>
      </trkpt>
      <trkpt lat="46.48817" lon="6.06482">
        <ele>1098</ele>
        <time>2023-01-05T13:12:25Z</time>
      </trkpt>
      <trkpt lat="46.48814" lon="6.06465">
        <ele>1098</ele>
        <time>2023-01-05T13:12:35Z</time>
      </trkpt>
      <trkpt lat="46.48815" lon="6.06429">
        <ele>1097</ele>
        <time>2023-01-05T13:12:55Z</time>
      </trkpt>
      <trkpt lat="46.48813" lon="6.06419">
        <ele>1097</ele>
        <time>2023-01-05T13:13:00Z</time>
      </trkpt>
      <trkpt lat="46.48811" lon="6.06409">
        <ele>1097</ele>
        <time>2023-01-05T13:13:06Z</time>
      </trkpt>
      <trkpt lat="46.48804" lon="6.064">
        <ele>1097</ele>
        <time>2023-01-05T13:13:14Z</time>
      </trkpt>
      <trkpt lat="46.48792" lon="6.06388">
        <ele>1096</ele>
        <time>2023-01-05T13:13:25Z</time>
      </trkpt>
      <trkpt lat="46.48785" lon="6.06381">
        <ele>1096</ele>
        <time>2023-01-05T13:13:32Z</time>
      </trkpt>
      <trkpt lat="46.48764" lon="6.0635">
        <ele>1094</ele>
        <time>2023-01-05T13:13:56Z</time>
      </trkpt>
      <trkpt lat="46.48753" lon="6.0634">
        <ele>1093</ele>
        <time>2023-01-05T13:14:06Z</time>
      </trkpt>
      <trkpt lat="46.48764" lon="6.06298">
        <ele>1093</ele>
        <time>2023-01-05T13:14:31Z</time>
      </trkpt>
      <trkpt lat="46.48777" lon="6.06251">
        <ele>1092</ele>
        <time>2023-01-05T13:14:59Z</time>
      </trkpt>
      <trkpt lat="46.48788" lon="6.06212">
        <ele>1091</ele>
        <time>2023-01-05T13:15:22Z</time>
      </trkpt>
      <trkpt lat="46.48792" lon="6.06192">
        <ele>1091</ele>
        <time>2023-01-05T13:15:34Z</time>
      </trkpt>
      <trkpt lat="46.48796" lon="6.06173">
        <ele>1091</ele>
        <time>2023-01-05T13:15:45Z</time>
      </trkpt>
      <trkpt lat="46.48797" lon="6.06144">
        <ele>1090</ele>
        <time>2023-01-05T13:16:01Z</time>
      </trkpt>
      <trkpt lat="46.48799" lon="6.06092">
        <ele>1089</ele>
        <time>2023-01-05T13:16:30Z</time>
      </trkpt>
      <trkpt lat="46.48801" lon="6.06075">
        <ele>1089</ele>
        <time>2023-01-05T13:16:39Z</time>
      </trkpt>
      <trkpt lat="46.48803" lon="6.06066">
        <ele>1089</ele>
        <time>2023-01-05T13:16:44Z</time>
      </trkpt>
      <trkpt lat="46.48808" lon="6.0605">
        <ele>1089</ele>
        <time>2023-01-05T13:16:54Z</time>
      </trkpt>
      <trkpt lat="46.48819" lon="6.06015">
        <ele>1089</ele>
        <time>2023-01-05T13:17:15Z</time>
      </trkpt>
      <trkpt lat="46.48833" lon="6.05972">
        <ele>1088</ele>
        <time>2023-01-05T13:17:41Z</time>
      </trkpt>
      <trkpt lat="46.48856" lon="6.05928">
        <ele>1090</ele>
        <time>2023-01-05T13:18:12Z</time>
      </trkpt>
      <trkpt lat="46.48865" lon="6.05901">
        <ele>1090</ele>
        <time>2023-01-05T13:18:28Z</time>
      </trkpt>
      <trkpt lat="46.48868" lon="6.05887">
        <ele>1090</ele>
        <time>2023-01-05T13:18:36Z</time>
      </trkpt>
      <trkpt lat="46.4887" lon="6.05872">
        <ele>1090</ele>
        <time>2023-01-05T13:18:45Z</time>
      </trkpt>
      <trkpt lat="46.4887" lon="6.0586">
        <ele>1089</ele>
        <time>2023-01-05T13:18:51Z</time>
      </trkpt>
      <trkpt lat="46.48863" lon="6.05813">
        <ele>1086</ele>
        <time>2023-01-05T13:19:18Z</time>
      </trkpt>
      <trkpt lat="46.48882" lon="6.05812">
        <ele>1088</ele>
        <time>2023-01-05T13:19:33Z</time>
      </trkpt>
      <trkpt lat="46.48889" lon="6.0582">
        <ele>1089</ele>
        <time>2023-01-05T13:19:40Z</time>
      </trkpt>
      <trkpt lat="46.48898" lon="6.05832">
        <ele>1091</ele>
        <time>2023-01-05T13:19:50Z</time>
      </trkpt>
      <trkpt lat="46.48903" lon="6.05837">
        <ele>1092</ele>
        <time>2023-01-05T13:19:55Z</time>
      </trkpt>
      <trkpt lat="46.4891" lon="6.05839">
        <ele>1093</ele>
        <time>2023-01-05T13:20:01Z</time>
      </trkpt>
      <trkpt lat="46.48918" lon="6.05832">
        <ele>1093</ele>
        <time>2023-01-05T13:20:08Z</time>
      </trkpt>
      <trkpt lat="46.48939" lon="6.05808">
        <ele>1094</ele>
        <time>2023-01-05T13:20:30Z</time>
      </trkpt>
      <trkpt lat="46.48946" lon="6.05805">
        <ele>1094</ele>
        <time>2023-01-05T13:20:35Z</time>
      </trkpt>
      <trkpt lat="46.48963" lon="6.05811">
        <ele>1096</ele>
        <time>2023-01-05T13:20:49Z</time>
      </trkpt>
      <trkpt lat="46.48975" lon="6.05818">
        <ele>1097</ele>
        <time>2023-01-05T13:21:00Z</time>
      </trkpt>
      <trkpt lat="46.48997" lon="6.05849">
        <ele>1100</ele>
        <time>2023-01-05T13:21:24Z</time>
      </trkpt>
      <trkpt lat="46.4901" lon="6.0586">
        <ele>1101</ele>
        <time>2023-01-05T13:21:36Z</time>
      </trkpt>
      <trkpt lat="46.49036" lon="6.05909">
        <ele>1103</ele>
        <time>2023-01-05T13:22:10Z</time>
      </trkpt>
      <trkpt lat="46.49062" lon="6.05957">
        <ele>1102</ele>
        <time>2023-01-05T13:22:44Z</time>
      </trkpt>
      <trkpt lat="46.49086" lon="6.06012">
        <ele>1100</ele>
        <time>2023-01-05T13:23:20Z</time>
      </trkpt>
      <trkpt lat="46.49111" lon="6.05991">
        <ele>1100</ele>
        <time>2023-01-05T13:23:43Z</time>
      </trkpt>
      <trkpt lat="46.49119" lon="6.05982">
        <ele>1100</ele>
        <time>2023-01-05T13:23:51Z</time>
      </trkpt>
      <trkpt lat="46.49133" lon="6.05956">
        <ele>1101</ele>
        <time>2023-01-05T13:24:09Z</time>
      </trkpt>
      <trkpt lat="46.49158" lon="6.05904">
        <ele>1105</ele>
        <time>2023-01-05T13:24:44Z</time>
      </trkpt>
      <trkpt lat="46.49163" lon="6.05896">
        <ele>1106</ele>
        <time>2023-01-05T13:24:50Z</time>
      </trkpt>
      <trkpt lat="46.49157" lon="6.05881">
        <ele>1107</ele>
        <time>2023-01-05T13:25:00Z</time>
      </trkpt>
      <trkpt lat="46.49167" lon="6.05877">
        <ele>1108</ele>
        <time>2023-01-05T13:25:08Z</time>
      </trkpt>
    </trkseg>
  </trk>
</gpx>